PWSweather.com
Personal Weather Stations
Station Observations
EI4HQ
Cork Harbour, CobhIE

Cork HarbourCobhIE

Lat: 51.85, Lon: -8.29

Elevation: 252

Station Type: Davis Vantage Pro2

http://www.corkharbourweather.ie

High Low Average
Temperature 50.4°F10.2°C 39.6°F4.2°C 44.9°F7.2°C
Dew Point 49.8°F9.9°C 37.9°F3.3°C 43.9°F6.6°C
Winds 14.0 mph 22.5 kmh 1.0 mph 1.6 kmh 8.0 mph ESE12.9 kmh ESE
Wind Gusts 31.0 mph49.9 kmh 3.0 mph4.8 kmh 14.0 mph22.5 kmh
Humidity 98% 94% 96%
Pressure 29.39 in995.3 mb 29.07 in984.4 mb -
Precipitation 0.03 in0.8 mm - -
Hour Temp Dew Point Humidity Winds Wind Gusts Pressure Precip Precip Rate Daily Precip Total
12:00 AM 39.6°F4.2°C 37.9°F3.3°C 94% 12.0 mph ENE19.3 kmh ENE 28.0 mph45.1 kmh 29.39 in995.3 mb 0.02 in0.5 mm 0.00 in0.0 mm 0.02 in0.5 mm
12:03 AM 39.6°F4.2°C 37.9°F3.3°C 94% 12.0 mph ENE19.3 kmh ENE 28.0 mph45.1 kmh 29.39 in995.3 mb 0.01 in0.3 mm 0.00 in0.0 mm 0.02 in0.5 mm
12:06 AM 39.6°F4.2°C 37.9°F3.3°C 94% 12.0 mph ENE19.3 kmh ENE 28.0 mph45.1 kmh 29.38 in994.9 mb 0.01 in0.3 mm 0.00 in0.0 mm 0.02 in0.5 mm
12:09 AM 39.6°F4.2°C 37.9°F3.3°C 94% 12.0 mph ENE19.3 kmh ENE 28.0 mph45.1 kmh 29.38 in994.9 mb 0.00 in0.0 mm 0.00 in0.0 mm 0.02 in0.5 mm
12:12 AM 39.6°F4.2°C 37.9°F3.3°C 94% 11.0 mph ENE17.7 kmh ENE 25.0 mph40.2 kmh 29.38 in994.9 mb 0.00 in0.0 mm 0.00 in0.0 mm 0.02 in0.5 mm
12:15 AM 39.6°F4.2°C 37.9°F3.3°C 94% 11.0 mph ENE17.7 kmh ENE 25.0 mph40.2 kmh 29.38 in994.9 mb 0.00 in0.0 mm 0.00 in0.0 mm 0.02 in0.5 mm
12:18 AM 39.6°F4.2°C 37.9°F3.3°C 94% 11.0 mph ENE17.7 kmh ENE 25.0 mph40.2 kmh 29.38 in994.9 mb 0.00 in0.0 mm 0.00 in0.0 mm 0.02 in0.5 mm
12:21 AM 39.7°F4.3°C 38.1°F3.4°C 94% 12.0 mph ENE19.3 kmh ENE 25.0 mph40.2 kmh 29.38 in994.9 mb 0.00 in0.0 mm 0.00 in0.0 mm 0.02 in0.5 mm
12:24 AM 39.7°F4.3°C 38.1°F3.4°C 94% 11.0 mph ENE17.7 kmh ENE 20.0 mph32.2 kmh 29.37 in994.6 mb 0.00 in0.0 mm 0.00 in0.0 mm 0.02 in0.5 mm
12:27 AM 39.7°F4.3°C 38.1°F3.4°C 94% 10.0 mph ENE16.1 kmh ENE 27.0 mph43.5 kmh 29.37 in994.6 mb 0.00 in0.0 mm 0.00 in0.0 mm 0.02 in0.5 mm
12:30 AM 39.7°F4.3°C 38.3°F3.5°C 94% 11.0 mph ENE17.7 kmh ENE 27.0 mph43.5 kmh 29.37 in994.6 mb 0.00 in0.0 mm 0.00 in0.0 mm 0.02 in0.5 mm
12:33 AM 39.7°F4.3°C 38.1°F3.4°C 94% 12.0 mph ENE19.3 kmh ENE 27.0 mph43.5 kmh 29.36 in994.2 mb 0.00 in0.0 mm 0.00 in0.0 mm 0.02 in0.5 mm
12:36 AM 39.7°F4.3°C 38.1°F3.4°C 94% 13.0 mph ENE20.9 kmh ENE 27.0 mph43.5 kmh 29.36 in994.2 mb 0.00 in0.0 mm 0.00 in0.0 mm 0.02 in0.5 mm
12:39 AM 39.7°F4.3°C 38.1°F3.4°C 94% 13.0 mph ENE20.9 kmh ENE 27.0 mph43.5 kmh 29.36 in994.2 mb 0.00 in0.0 mm 0.00 in0.0 mm 0.02 in0.5 mm
12:42 AM 39.7°F4.3°C 38.1°F3.4°C 94% 11.0 mph ENE17.7 kmh ENE 26.0 mph41.8 kmh 29.36 in994.2 mb 0.00 in0.0 mm 0.00 in0.0 mm 0.02 in0.5 mm
12:45 AM 39.7°F4.3°C 38.1°F3.4°C 94% 11.0 mph ENE17.7 kmh ENE 26.0 mph41.8 kmh 29.36 in994.2 mb 0.00 in0.0 mm 0.00 in0.0 mm 0.02 in0.5 mm
12:48 AM 39.7°F4.3°C 38.1°F3.4°C 94% 12.0 mph ENE19.3 kmh ENE 26.0 mph41.8 kmh 29.36 in994.2 mb 0.00 in0.0 mm 0.00 in0.0 mm 0.02 in0.5 mm
12:51 AM 39.7°F4.3°C 38.1°F3.4°C 94% 13.0 mph ENE20.9 kmh ENE 26.0 mph41.8 kmh 29.36 in994.2 mb 0.00 in0.0 mm 0.00 in0.0 mm 0.02 in0.5 mm
12:54 AM 39.7°F4.3°C 38.1°F3.4°C 94% 13.0 mph ENE20.9 kmh ENE 26.0 mph41.8 kmh 29.36 in994.2 mb 0.00 in0.0 mm 0.00 in0.0 mm 0.02 in0.5 mm
12:57 AM 39.7°F4.3°C 38.1°F3.4°C 94% 13.0 mph ENE20.9 kmh ENE 25.0 mph40.2 kmh 29.36 in994.2 mb 0.00 in0.0 mm 0.00 in0.0 mm 0.02 in0.5 mm
01:00 AM 39.7°F4.3°C 38.1°F3.4°C 94% 13.0 mph ENE20.9 kmh ENE 25.0 mph40.2 kmh 29.35 in993.9 mb 0.00 in0.0 mm 0.00 in0.0 mm 0.02 in0.5 mm
01:03 AM 39.7°F4.3°C 38.1°F3.4°C 94% 11.0 mph ENE17.7 kmh ENE 22.0 mph35.4 kmh 29.35 in993.9 mb 0.00 in0.0 mm 0.00 in0.0 mm 0.02 in0.5 mm
01:06 AM 39.7°F4.3°C 38.1°F3.4°C 94% 12.0 mph ENE19.3 kmh ENE 23.0 mph37.0 kmh 29.35 in993.9 mb 0.00 in0.0 mm 0.00 in0.0 mm 0.02 in0.5 mm
01:09 AM 39.7°F4.3°C 38.1°F3.4°C 94% 11.0 mph ENE17.7 kmh ENE 23.0 mph37.0 kmh 29.34 in993.6 mb 0.00 in0.0 mm 0.00 in0.0 mm 0.02 in0.5 mm
01:12 AM 39.7°F4.3°C 38.1°F3.4°C 94% 12.0 mph ENE19.3 kmh ENE 23.0 mph37.0 kmh 29.34 in993.6 mb 0.00 in0.0 mm 0.00 in0.0 mm 0.02 in0.5 mm
01:15 AM 39.7°F4.3°C 38.1°F3.4°C 94% 11.0 mph ENE17.7 kmh ENE 23.0 mph37.0 kmh 29.34 in993.6 mb 0.00 in0.0 mm 0.00 in0.0 mm 0.02 in0.5 mm
01:18 AM 39.7°F4.3°C 38.1°F3.4°C 94% 10.0 mph ENE16.1 kmh ENE 22.0 mph35.4 kmh 29.34 in993.6 mb 0.00 in0.0 mm 0.00 in0.0 mm 0.02 in0.5 mm
01:21 AM 39.7°F4.3°C 38.1°F3.4°C 94% 10.0 mph ENE16.1 kmh ENE 22.0 mph35.4 kmh 29.33 in993.2 mb 0.00 in0.0 mm 0.00 in0.0 mm 0.02 in0.5 mm
01:24 AM 39.7°F4.3°C 38.1°F3.4°C 94% 11.0 mph ENE17.7 kmh ENE 27.0 mph43.5 kmh 29.33 in993.2 mb 0.00 in0.0 mm 0.00 in0.0 mm 0.02 in0.5 mm
01:27 AM 39.7°F4.3°C 38.1°F3.4°C 94% 12.0 mph ENE19.3 kmh ENE 27.0 mph43.5 kmh 29.33 in993.2 mb 0.00 in0.0 mm 0.00 in0.0 mm 0.02 in0.5 mm
01:30 AM 39.7°F4.3°C 38.1°F3.4°C 94% 13.0 mph ENE20.9 kmh ENE 27.0 mph43.5 kmh 29.33 in993.2 mb 0.00 in0.0 mm 0.00 in0.0 mm 0.02 in0.5 mm
01:33 AM 39.7°F4.3°C 38.1°F3.4°C 94% 13.0 mph ENE20.9 kmh ENE 31.0 mph49.9 kmh 29.33 in993.2 mb 0.00 in0.0 mm 0.00 in0.0 mm 0.02 in0.5 mm
01:36 AM 39.7°F4.3°C 38.1°F3.4°C 94% 13.0 mph ENE20.9 kmh ENE 31.0 mph49.9 kmh 29.33 in993.2 mb 0.00 in0.0 mm 0.00 in0.0 mm 0.02 in0.5 mm
01:39 AM 39.7°F4.3°C 38.1°F3.4°C 94% 13.0 mph ENE20.9 kmh ENE 31.0 mph49.9 kmh 29.33 in993.2 mb 0.00 in0.0 mm 0.00 in0.0 mm 0.02 in0.5 mm
01:42 AM 39.7°F4.3°C 38.1°F3.4°C 94% 13.0 mph ENE20.9 kmh ENE 22.0 mph35.4 kmh 29.32 in992.9 mb 0.00 in0.0 mm 0.00 in0.0 mm 0.02 in0.5 mm
01:45 AM 39.7°F4.3°C 38.1°F3.4°C 94% 12.0 mph ENE19.3 kmh ENE 22.0 mph35.4 kmh 29.32 in992.9 mb 0.00 in0.0 mm 0.00 in0.0 mm 0.02 in0.5 mm
01:48 AM 39.7°F4.3°C 38.1°F3.4°C 94% 12.0 mph ENE19.3 kmh ENE 25.0 mph40.2 kmh 29.32 in992.9 mb 0.00 in0.0 mm 0.00 in0.0 mm 0.02 in0.5 mm
01:51 AM 39.7°F4.3°C 38.1°F3.4°C 94% 12.0 mph ENE19.3 kmh ENE 28.0 mph45.1 kmh 29.32 in992.9 mb 0.00 in0.0 mm 0.00 in0.0 mm 0.02 in0.5 mm
01:54 AM 39.7°F4.3°C 38.1°F3.4°C 94% 13.0 mph ENE20.9 kmh ENE 28.0 mph45.1 kmh 29.32 in992.9 mb 0.00 in0.0 mm 0.00 in0.0 mm 0.02 in0.5 mm
01:57 AM 39.7°F4.3°C 38.1°F3.4°C 94% 14.0 mph ENE22.5 kmh ENE 28.0 mph45.1 kmh 29.32 in992.9 mb 0.00 in0.0 mm 0.00 in0.0 mm 0.02 in0.5 mm
02:00 AM 39.7°F4.3°C 38.1°F3.4°C 94% 13.0 mph ENE20.9 kmh ENE 23.0 mph37.0 kmh 29.32 in992.9 mb 0.00 in0.0 mm 0.00 in0.0 mm 0.02 in0.5 mm
02:03 AM 39.7°F4.3°C 38.1°F3.4°C 94% 13.0 mph ENE20.9 kmh ENE 23.0 mph37.0 kmh 29.31 in992.6 mb 0.00 in0.0 mm 0.00 in0.0 mm 0.02 in0.5 mm
02:06 AM 39.7°F4.3°C 38.1°F3.4°C 94% 13.0 mph ENE20.9 kmh ENE 23.0 mph37.0 kmh 29.32 in992.9 mb 0.00 in0.0 mm 0.00 in0.0 mm 0.02 in0.5 mm
02:09 AM 39.7°F4.3°C 38.1°F3.4°C 94% 12.0 mph ENE19.3 kmh ENE 23.0 mph37.0 kmh 29.31 in992.6 mb 0.00 in0.0 mm 0.00 in0.0 mm 0.02 in0.5 mm
02:12 AM 39.7°F4.3°C 38.1°F3.4°C 94% 10.0 mph ENE16.1 kmh ENE 21.0 mph33.8 kmh 29.31 in992.6 mb 0.00 in0.0 mm 0.00 in0.0 mm 0.02 in0.5 mm
02:15 AM 39.7°F4.3°C 38.1°F3.4°C 94% 11.0 mph ENE17.7 kmh ENE 21.0 mph33.8 kmh 29.31 in992.6 mb 0.00 in0.0 mm 0.00 in0.0 mm 0.02 in0.5 mm
02:18 AM 39.7°F4.3°C 38.1°F3.4°C 94% 11.0 mph ENE17.7 kmh ENE 21.0 mph33.8 kmh 29.31 in992.6 mb 0.00 in0.0 mm 0.00 in0.0 mm 0.02 in0.5 mm
02:21 AM 39.7°F4.3°C 38.1°F3.4°C 94% 12.0 mph ENE19.3 kmh ENE 21.0 mph33.8 kmh 29.30 in992.2 mb 0.00 in0.0 mm 0.00 in0.0 mm 0.02 in0.5 mm
02:24 AM 39.7°F4.3°C 38.1°F3.4°C 94% 12.0 mph ENE19.3 kmh ENE 21.0 mph33.8 kmh 29.30 in992.2 mb 0.00 in0.0 mm 0.00 in0.0 mm 0.02 in0.5 mm
02:27 AM 39.7°F4.3°C 38.1°F3.4°C 94% 12.0 mph ENE19.3 kmh ENE 21.0 mph33.8 kmh 29.30 in992.2 mb 0.00 in0.0 mm 0.00 in0.0 mm 0.02 in0.5 mm
02:30 AM 39.7°F4.3°C 38.1°F3.4°C 94% 12.0 mph ENE19.3 kmh ENE 19.0 mph30.6 kmh 29.30 in992.2 mb 0.00 in0.0 mm 0.00 in0.0 mm 0.02 in0.5 mm
02:33 AM 39.7°F4.3°C 38.1°F3.4°C 94% 12.0 mph ENE19.3 kmh ENE 23.0 mph37.0 kmh 29.30 in992.2 mb 0.00 in0.0 mm 0.00 in0.0 mm 0.02 in0.5 mm
02:36 AM 39.7°F4.3°C 38.1°F3.4°C 94% 12.0 mph ENE19.3 kmh ENE 23.0 mph37.0 kmh 29.30 in992.2 mb 0.00 in0.0 mm 0.00 in0.0 mm 0.02 in0.5 mm
02:39 AM 39.7°F4.3°C 38.1°F3.4°C 94% 11.0 mph ENE17.7 kmh ENE 23.0 mph37.0 kmh 29.30 in992.2 mb 0.00 in0.0 mm 0.00 in0.0 mm 0.02 in0.5 mm
02:42 AM 39.7°F4.3°C 38.1°F3.4°C 94% 11.0 mph ENE17.7 kmh ENE 19.0 mph30.6 kmh 29.29 in991.9 mb 0.00 in0.0 mm 0.00 in0.0 mm 0.02 in0.5 mm
02:45 AM 39.7°F4.3°C 38.1°F3.4°C 94% 11.0 mph ENE17.7 kmh ENE 21.0 mph33.8 kmh 29.29 in991.9 mb 0.00 in0.0 mm 0.00 in0.0 mm 0.02 in0.5 mm
02:48 AM 39.7°F4.3°C 38.1°F3.4°C 94% 10.0 mph ENE16.1 kmh ENE 21.0 mph33.8 kmh 29.29 in991.9 mb 0.00 in0.0 mm 0.00 in0.0 mm 0.02 in0.5 mm
02:51 AM 39.7°F4.3°C 38.1°F3.4°C 94% 10.0 mph ENE16.1 kmh ENE 21.0 mph33.8 kmh 29.30 in992.2 mb 0.00 in0.0 mm 0.00 in0.0 mm 0.02 in0.5 mm
02:54 AM 39.7°F4.3°C 38.1°F3.4°C 94% 10.0 mph ENE16.1 kmh ENE 19.0 mph30.6 kmh 29.29 in991.9 mb 0.00 in0.0 mm 0.00 in0.0 mm 0.02 in0.5 mm
02:57 AM 39.7°F4.3°C 38.1°F3.4°C 94% 10.0 mph ENE16.1 kmh ENE 20.0 mph32.2 kmh 29.29 in991.9 mb 0.00 in0.0 mm 0.00 in0.0 mm 0.02 in0.5 mm
03:00 AM 39.7°F4.3°C 38.1°F3.4°C 94% 11.0 mph ENE17.7 kmh ENE 20.0 mph32.2 kmh 29.29 in991.9 mb 0.00 in0.0 mm 0.00 in0.0 mm 0.02 in0.5 mm
03:03 AM 39.7°F4.3°C 38.1°F3.4°C 94% 10.0 mph ENE16.1 kmh ENE 20.0 mph32.2 kmh 29.29 in991.9 mb 0.00 in0.0 mm 0.00 in0.0 mm 0.02 in0.5 mm
03:06 AM 39.7°F4.3°C 38.1°F3.4°C 94% 10.0 mph ENE16.1 kmh ENE 19.0 mph30.6 kmh 29.28 in991.5 mb 0.00 in0.0 mm 0.00 in0.0 mm 0.02 in0.5 mm
03:09 AM 39.7°F4.3°C 38.1°F3.4°C 94% 11.0 mph ENE17.7 kmh ENE 23.0 mph37.0 kmh 29.28 in991.5 mb 0.00 in0.0 mm 0.00 in0.0 mm 0.02 in0.5 mm
03:12 AM 39.7°F4.3°C 38.1°F3.4°C 94% 12.0 mph ENE19.3 kmh ENE 24.0 mph38.6 kmh 29.28 in991.5 mb 0.00 in0.0 mm 0.00 in0.0 mm 0.02 in0.5 mm
03:15 AM 39.7°F4.3°C 38.1°F3.4°C 94% 13.0 mph ENE20.9 kmh ENE 24.0 mph38.6 kmh 29.28 in991.5 mb 0.00 in0.0 mm 0.00 in0.0 mm 0.02 in0.5 mm
03:18 AM 39.7°F4.3°C 38.1°F3.4°C 94% 13.0 mph ENE20.9 kmh ENE 24.0 mph38.6 kmh 29.28 in991.5 mb 0.00 in0.0 mm 0.00 in0.0 mm 0.02 in0.5 mm
03:21 AM 39.7°F4.3°C 38.1°F3.4°C 94% 11.0 mph NE17.7 kmh NE 21.0 mph33.8 kmh 29.28 in991.5 mb 0.00 in0.0 mm 0.00 in0.0 mm 0.02 in0.5 mm
03:24 AM 39.7°F4.3°C 38.1°F3.4°C 94% 10.0 mph ENE16.1 kmh ENE 19.0 mph30.6 kmh 29.27 in991.2 mb 0.00 in0.0 mm 0.00 in0.0 mm 0.02 in0.5 mm
03:27 AM 39.7°F4.3°C 38.1°F3.4°C 94% 10.0 mph ENE16.1 kmh ENE 17.0 mph27.4 kmh 29.27 in991.2 mb 0.00 in0.0 mm 0.00 in0.0 mm 0.02 in0.5 mm
03:30 AM 39.7°F4.3°C 38.1°F3.4°C 94% 10.0 mph ENE16.1 kmh ENE 17.0 mph27.4 kmh 29.27 in991.2 mb 0.00 in0.0 mm 0.00 in0.0 mm 0.02 in0.5 mm
03:33 AM 39.7°F4.3°C 38.1°F3.4°C 94% 10.0 mph ENE16.1 kmh ENE 20.0 mph32.2 kmh 29.27 in991.2 mb 0.00 in0.0 mm 0.00 in0.0 mm 0.02 in0.5 mm
03:36 AM 39.7°F4.3°C 38.1°F3.4°C 94% 11.0 mph ENE17.7 kmh ENE 20.0 mph32.2 kmh 29.27 in991.2 mb 0.00 in0.0 mm 0.00 in0.0 mm 0.02 in0.5 mm
03:39 AM 39.7°F4.3°C 38.1°F3.4°C 94% 12.0 mph ENE19.3 kmh ENE 20.0 mph32.2 kmh 29.27 in991.2 mb 0.00 in0.0 mm 0.00 in0.0 mm 0.02 in0.5 mm
03:42 AM 39.7°F4.3°C 38.1°F3.4°C 94% 11.0 mph ENE17.7 kmh ENE 18.0 mph29.0 kmh 29.27 in991.2 mb 0.00 in0.0 mm 0.00 in0.0 mm 0.02 in0.5 mm
03:45 AM 39.7°F4.3°C 38.1°F3.4°C 94% 11.0 mph ENE17.7 kmh ENE 20.0 mph32.2 kmh 29.27 in991.2 mb 0.00 in0.0 mm 0.00 in0.0 mm 0.02 in0.5 mm
03:48 AM 39.7°F4.3°C 38.1°F3.4°C 94% 10.0 mph ENE16.1 kmh ENE 20.0 mph32.2 kmh 29.27 in991.2 mb 0.00 in0.0 mm 0.00 in0.0 mm 0.02 in0.5 mm
03:51 AM 39.7°F4.3°C 38.1°F3.4°C 94% 10.0 mph ENE16.1 kmh ENE 20.0 mph32.2 kmh 29.27 in991.2 mb 0.00 in0.0 mm 0.00 in0.0 mm 0.02 in0.5 mm
03:54 AM 39.7°F4.3°C 38.1°F3.4°C 94% 9.0 mph ENE14.5 kmh ENE 20.0 mph32.2 kmh 29.27 in991.2 mb 0.00 in0.0 mm 0.00 in0.0 mm 0.02 in0.5 mm
03:57 AM 39.7°F4.3°C 38.1°F3.4°C 94% 9.0 mph ENE14.5 kmh ENE 18.0 mph29.0 kmh 29.27 in991.2 mb 0.00 in0.0 mm 0.00 in0.0 mm 0.02 in0.5 mm
04:00 AM 39.7°F4.3°C 38.1°F3.4°C 94% 8.0 mph ENE12.9 kmh ENE 16.0 mph25.7 kmh 29.27 in991.2 mb 0.00 in0.0 mm 0.00 in0.0 mm 0.02 in0.5 mm
04:03 AM 39.7°F4.3°C 38.1°F3.4°C 94% 9.0 mph ENE14.5 kmh ENE 17.0 mph27.4 kmh 29.26 in990.9 mb 0.00 in0.0 mm 0.00 in0.0 mm 0.02 in0.5 mm
04:06 AM 39.7°F4.3°C 38.1°F3.4°C 94% 9.0 mph ENE14.5 kmh ENE 18.0 mph29.0 kmh 29.26 in990.9 mb 0.00 in0.0 mm 0.00 in0.0 mm 0.02 in0.5 mm
04:09 AM 39.7°F4.3°C 38.1°F3.4°C 94% 10.0 mph ENE16.1 kmh ENE 18.0 mph29.0 kmh 29.27 in991.2 mb 0.00 in0.0 mm 0.00 in0.0 mm 0.02 in0.5 mm
04:12 AM 39.7°F4.3°C 38.1°F3.4°C 94% 10.0 mph ENE16.1 kmh ENE 18.0 mph29.0 kmh 29.26 in990.9 mb 0.00 in0.0 mm 0.00 in0.0 mm 0.02 in0.5 mm
04:15 AM 39.7°F4.3°C 38.1°F3.4°C 94% 8.0 mph ENE12.9 kmh ENE 18.0 mph29.0 kmh 29.26 in990.9 mb 0.00 in0.0 mm 0.00 in0.0 mm 0.02 in0.5 mm
04:18 AM 39.7°F4.3°C 38.1°F3.4°C 94% 8.0 mph ENE12.9 kmh ENE 18.0 mph29.0 kmh 29.26 in990.9 mb 0.00 in0.0 mm 0.00 in0.0 mm 0.02 in0.5 mm
04:21 AM 39.7°F4.3°C 38.1°F3.4°C 94% 7.0 mph ENE11.3 kmh ENE 18.0 mph29.0 kmh 29.26 in990.9 mb 0.00 in0.0 mm 0.00 in0.0 mm 0.02 in0.5 mm
04:24 AM 39.7°F4.3°C 38.1°F3.4°C 94% 7.0 mph ENE11.3 kmh ENE 14.0 mph22.5 kmh 29.26 in990.9 mb 0.00 in0.0 mm 0.00 in0.0 mm 0.02 in0.5 mm
04:27 AM 39.7°F4.3°C 38.1°F3.4°C 94% 8.0 mph ENE12.9 kmh ENE 15.0 mph24.1 kmh 29.26 in990.9 mb 0.00 in0.0 mm 0.00 in0.0 mm 0.02 in0.5 mm
04:30 AM 39.7°F4.3°C 38.1°F3.4°C 94% 9.0 mph ENE14.5 kmh ENE 19.0 mph30.6 kmh 29.25 in990.5 mb 0.00 in0.0 mm 0.00 in0.0 mm 0.02 in0.5 mm
04:33 AM 39.7°F4.3°C 38.1°F3.4°C 94% 10.0 mph ENE16.1 kmh ENE 19.0 mph30.6 kmh 29.25 in990.5 mb 0.00 in0.0 mm 0.00 in0.0 mm 0.02 in0.5 mm
04:36 AM 39.7°F4.3°C 38.1°F3.4°C 94% 10.0 mph ENE16.1 kmh ENE 19.0 mph30.6 kmh 29.25 in990.5 mb 0.00 in0.0 mm 0.00 in0.0 mm 0.02 in0.5 mm
04:39 AM 39.7°F4.3°C 38.1°F3.4°C 94% 10.0 mph ENE16.1 kmh ENE 19.0 mph30.6 kmh 29.25 in990.5 mb 0.00 in0.0 mm 0.00 in0.0 mm 0.02 in0.5 mm
04:42 AM 39.7°F4.3°C 38.1°F3.4°C 94% 10.0 mph NE16.1 kmh NE 19.0 mph30.6 kmh 29.25 in990.5 mb 0.00 in0.0 mm 0.00 in0.0 mm 0.02 in0.5 mm
04:45 AM 39.7°F4.3°C 38.1°F3.4°C 94% 9.0 mph ENE14.5 kmh ENE 19.0 mph30.6 kmh 29.25 in990.5 mb 0.00 in0.0 mm 0.00 in0.0 mm 0.02 in0.5 mm
04:48 AM 39.7°F4.3°C 38.1°F3.4°C 94% 9.0 mph ENE14.5 kmh ENE 17.0 mph27.4 kmh 29.25 in990.5 mb 0.00 in0.0 mm 0.00 in0.0 mm 0.02 in0.5 mm
04:51 AM 39.7°F4.3°C 38.1°F3.4°C 94% 10.0 mph ENE16.1 kmh ENE 17.0 mph27.4 kmh 29.24 in990.2 mb 0.00 in0.0 mm 0.00 in0.0 mm 0.02 in0.5 mm
04:54 AM 39.7°F4.3°C 38.1°F3.4°C 94% 10.0 mph ENE16.1 kmh ENE 17.0 mph27.4 kmh 29.24 in990.2 mb 0.00 in0.0 mm 0.00 in0.0 mm 0.02 in0.5 mm
04:57 AM 39.7°F4.3°C 38.1°F3.4°C 94% 10.0 mph ENE16.1 kmh ENE 17.0 mph27.4 kmh 29.24 in990.2 mb 0.00 in0.0 mm 0.00 in0.0 mm 0.02 in0.5 mm
05:00 AM 39.7°F4.3°C 38.1°F3.4°C 94% 10.0 mph ENE16.1 kmh ENE 17.0 mph27.4 kmh 29.24 in990.2 mb 0.00 in0.0 mm 0.00 in0.0 mm 0.02 in0.5 mm
05:03 AM 39.7°F4.3°C 38.1°F3.4°C 94% 10.0 mph ENE16.1 kmh ENE 17.0 mph27.4 kmh 29.24 in990.2 mb 0.00 in0.0 mm 0.00 in0.0 mm 0.02 in0.5 mm
05:06 AM 39.7°F4.3°C 38.1°F3.4°C 94% 10.0 mph ENE16.1 kmh ENE 17.0 mph27.4 kmh 29.23 in989.8 mb 0.00 in0.0 mm 0.00 in0.0 mm 0.02 in0.5 mm
05:09 AM 39.7°F4.3°C 38.1°F3.4°C 94% 10.0 mph ENE16.1 kmh ENE 17.0 mph27.4 kmh 29.23 in989.8 mb 0.00 in0.0 mm 0.00 in0.0 mm 0.02 in0.5 mm
05:12 AM 39.7°F4.3°C 38.1°F3.4°C 94% 10.0 mph ENE16.1 kmh ENE 17.0 mph27.4 kmh 29.23 in989.8 mb 0.00 in0.0 mm 0.00 in0.0 mm 0.02 in0.5 mm
05:15 AM 39.7°F4.3°C 38.1°F3.4°C 94% 10.0 mph ENE16.1 kmh ENE 17.0 mph27.4 kmh 29.23 in989.8 mb 0.00 in0.0 mm 0.00 in0.0 mm 0.02 in0.5 mm
05:18 AM 39.7°F4.3°C 38.1°F3.4°C 94% 10.0 mph ENE16.1 kmh ENE 17.0 mph27.4 kmh 29.23 in989.8 mb 0.00 in0.0 mm 0.00 in0.0 mm 0.02 in0.5 mm
05:21 AM 39.7°F4.3°C 38.1°F3.4°C 94% 10.0 mph ENE16.1 kmh ENE 16.0 mph25.7 kmh 29.23 in989.8 mb 0.00 in0.0 mm 0.00 in0.0 mm 0.02 in0.5 mm
05:24 AM 39.7°F4.3°C 38.1°F3.4°C 94% 11.0 mph ENE17.7 kmh ENE 17.0 mph27.4 kmh 29.23 in989.8 mb 0.00 in0.0 mm 0.00 in0.0 mm 0.02 in0.5 mm
05:27 AM 39.7°F4.3°C 38.1°F3.4°C 94% 10.0 mph ENE16.1 kmh ENE 17.0 mph27.4 kmh 29.23 in989.8 mb 0.00 in0.0 mm 0.00 in0.0 mm 0.02 in0.5 mm
05:30 AM 39.7°F4.3°C 38.1°F3.4°C 94% 10.0 mph ENE16.1 kmh ENE 17.0 mph27.4 kmh 29.23 in989.8 mb 0.00 in0.0 mm 0.00 in0.0 mm 0.02 in0.5 mm
05:33 AM 39.7°F4.3°C 38.1°F3.4°C 94% 9.0 mph ENE14.5 kmh ENE 17.0 mph27.4 kmh 29.23 in989.8 mb 0.00 in0.0 mm 0.00 in0.0 mm 0.02 in0.5 mm
05:36 AM 39.7°F4.3°C 38.1°F3.4°C 94% 8.0 mph ENE12.9 kmh ENE 15.0 mph24.1 kmh 29.23 in989.8 mb 0.00 in0.0 mm 0.00 in0.0 mm 0.02 in0.5 mm
05:39 AM 39.7°F4.3°C 38.1°F3.4°C 94% 8.0 mph ENE12.9 kmh ENE 15.0 mph24.1 kmh 29.23 in989.8 mb 0.00 in0.0 mm 0.00 in0.0 mm 0.02 in0.5 mm
05:42 AM 39.7°F4.3°C 38.1°F3.4°C 94% 7.0 mph ENE11.3 kmh ENE 13.0 mph20.9 kmh 29.23 in989.8 mb 0.00 in0.0 mm 0.00 in0.0 mm 0.02 in0.5 mm
05:45 AM 39.7°F4.3°C 38.1°F3.4°C 94% 7.0 mph ENE11.3 kmh ENE 12.0 mph19.3 kmh 29.23 in989.8 mb 0.00 in0.0 mm 0.00 in0.0 mm 0.02 in0.5 mm
05:48 AM 39.7°F4.3°C 38.1°F3.4°C 94% 6.0 mph ENE9.7 kmh ENE 12.0 mph19.3 kmh 29.23 in989.8 mb 0.00 in0.0 mm 0.00 in0.0 mm 0.02 in0.5 mm
05:51 AM 39.7°F4.3°C 38.1°F3.4°C 94% 5.0 mph ENE8.0 kmh ENE 12.0 mph19.3 kmh 29.23 in989.8 mb 0.00 in0.0 mm 0.00 in0.0 mm 0.02 in0.5 mm
05:54 AM 39.7°F4.3°C 38.1°F3.4°C 94% 5.0 mph ENE8.0 kmh ENE 12.0 mph19.3 kmh 29.23 in989.8 mb 0.00 in0.0 mm 0.00 in0.0 mm 0.02 in0.5 mm
05:57 AM 39.7°F4.3°C 38.1°F3.4°C 94% 6.0 mph ENE9.7 kmh ENE 14.0 mph22.5 kmh 29.22 in989.5 mb 0.00 in0.0 mm 0.00 in0.0 mm 0.02 in0.5 mm
06:00 AM 39.7°F4.3°C 38.1°F3.4°C 94% 6.0 mph ENE9.7 kmh ENE 14.0 mph22.5 kmh 29.23 in989.8 mb 0.00 in0.0 mm 0.00 in0.0 mm 0.02 in0.5 mm
06:03 AM 39.7°F4.3°C 38.1°F3.4°C 94% 6.0 mph ENE9.7 kmh ENE 14.0 mph22.5 kmh 29.22 in989.5 mb 0.00 in0.0 mm 0.00 in0.0 mm 0.02 in0.5 mm
06:06 AM 39.7°F4.3°C 38.1°F3.4°C 94% 6.0 mph ENE9.7 kmh ENE 13.0 mph20.9 kmh 29.22 in989.5 mb 0.00 in0.0 mm 0.00 in0.0 mm 0.02 in0.5 mm
06:09 AM 39.7°F4.3°C 38.1°F3.4°C 94% 5.0 mph ENE8.0 kmh ENE 13.0 mph20.9 kmh 29.22 in989.5 mb 0.00 in0.0 mm 0.00 in0.0 mm 0.02 in0.5 mm
06:12 AM 39.7°F4.3°C 38.1°F3.4°C 94% 6.0 mph ENE9.7 kmh ENE 13.0 mph20.9 kmh 29.22 in989.5 mb 0.00 in0.0 mm 0.00 in0.0 mm 0.02 in0.5 mm
06:15 AM 39.7°F4.3°C 38.1°F3.4°C 94% 5.0 mph ENE8.0 kmh ENE 13.0 mph20.9 kmh 29.22 in989.5 mb 0.00 in0.0 mm 0.00 in0.0 mm 0.02 in0.5 mm
06:18 AM 39.7°F4.3°C 38.1°F3.4°C 94% 4.0 mph ENE6.4 kmh ENE 10.0 mph16.1 kmh 29.22 in989.5 mb 0.00 in0.0 mm 0.00 in0.0 mm 0.02 in0.5 mm
06:21 AM 39.7°F4.3°C 38.1°F3.4°C 94% 4.0 mph ENE6.4 kmh ENE 10.0 mph16.1 kmh 29.22 in989.5 mb 0.00 in0.0 mm 0.00 in0.0 mm 0.02 in0.5 mm
06:24 AM 39.7°F4.3°C 38.1°F3.4°C 94% 4.0 mph ENE6.4 kmh ENE 9.0 mph14.5 kmh 29.22 in989.5 mb 0.00 in0.0 mm 0.00 in0.0 mm 0.02 in0.5 mm
06:27 AM 39.7°F4.3°C 38.1°F3.4°C 94% 4.0 mph ENE6.4 kmh ENE 9.0 mph14.5 kmh 29.22 in989.5 mb 0.00 in0.0 mm 0.00 in0.0 mm 0.02 in0.5 mm
06:30 AM 39.7°F4.3°C 38.1°F3.4°C 94% 4.0 mph ENE6.4 kmh ENE 9.0 mph14.5 kmh 29.21 in989.2 mb 0.00 in0.0 mm 0.00 in0.0 mm 0.02 in0.5 mm
06:33 AM 39.7°F4.3°C 38.1°F3.4°C 94% 4.0 mph ENE6.4 kmh ENE 8.0 mph12.9 kmh 29.21 in989.2 mb 0.00 in0.0 mm 0.00 in0.0 mm 0.02 in0.5 mm
06:36 AM 39.7°F4.3°C 38.1°F3.4°C 94% 4.0 mph ENE6.4 kmh ENE 10.0 mph16.1 kmh 29.21 in989.2 mb 0.00 in0.0 mm 0.00 in0.0 mm 0.02 in0.5 mm
06:39 AM 39.7°F4.3°C 38.1°F3.4°C 94% 4.0 mph ENE6.4 kmh ENE 12.0 mph19.3 kmh 29.21 in989.2 mb 0.00 in0.0 mm 0.00 in0.0 mm 0.02 in0.5 mm
06:42 AM 39.7°F4.3°C 38.1°F3.4°C 94% 5.0 mph ENE8.0 kmh ENE 12.0 mph19.3 kmh 29.21 in989.2 mb 0.00 in0.0 mm 0.00 in0.0 mm 0.02 in0.5 mm
06:45 AM 39.7°F4.3°C 38.1°F3.4°C 94% 6.0 mph ENE9.7 kmh ENE 12.0 mph19.3 kmh 29.21 in989.2 mb 0.00 in0.0 mm 0.00 in0.0 mm 0.02 in0.5 mm
06:48 AM 39.7°F4.3°C 38.1°F3.4°C 94% 5.0 mph ENE8.0 kmh ENE 12.0 mph19.3 kmh 29.21 in989.2 mb 0.00 in0.0 mm 0.00 in0.0 mm 0.02 in0.5 mm
06:51 AM 39.7°F4.3°C 38.1°F3.4°C 94% 5.0 mph NE8.0 kmh NE 12.0 mph19.3 kmh 29.21 in989.2 mb 0.00 in0.0 mm 0.00 in0.0 mm 0.02 in0.5 mm
06:54 AM 39.7°F4.3°C 38.1°F3.4°C 94% 4.0 mph ENE6.4 kmh ENE 11.0 mph17.7 kmh 29.21 in989.2 mb 0.00 in0.0 mm 0.00 in0.0 mm 0.02 in0.5 mm
06:57 AM 39.7°F4.3°C 38.1°F3.4°C 94% 4.0 mph ENE6.4 kmh ENE 10.0 mph16.1 kmh 29.21 in989.2 mb 0.00 in0.0 mm 0.00 in0.0 mm 0.02 in0.5 mm
07:00 AM 39.7°F4.3°C 38.1°F3.4°C 94% 4.0 mph ENE6.4 kmh ENE 10.0 mph16.1 kmh 29.21 in989.2 mb 0.00 in0.0 mm 0.00 in0.0 mm 0.02 in0.5 mm
07:03 AM 39.7°F4.3°C 38.1°F3.4°C 94% 4.0 mph ENE6.4 kmh ENE 10.0 mph16.1 kmh 29.21 in989.2 mb 0.00 in0.0 mm 0.00 in0.0 mm 0.02 in0.5 mm
07:06 AM 39.7°F4.3°C 38.1°F3.4°C 94% 5.0 mph ENE8.0 kmh ENE 10.0 mph16.1 kmh 29.21 in989.2 mb 0.00 in0.0 mm 0.00 in0.0 mm 0.02 in0.5 mm
07:09 AM 39.7°F4.3°C 38.1°F3.4°C 94% 5.0 mph ENE8.0 kmh ENE 11.0 mph17.7 kmh 29.20 in988.8 mb 0.00 in0.0 mm 0.00 in0.0 mm 0.02 in0.5 mm
07:12 AM 39.7°F4.3°C 38.1°F3.4°C 94% 5.0 mph ENE8.0 kmh ENE 11.0 mph17.7 kmh 29.20 in988.8 mb 0.00 in0.0 mm 0.00 in0.0 mm 0.02 in0.5 mm
07:15 AM 39.7°F4.3°C 38.1°F3.4°C 94% 5.0 mph ENE8.0 kmh ENE 11.0 mph17.7 kmh 29.20 in988.8 mb 0.00 in0.0 mm 0.00 in0.0 mm 0.02 in0.5 mm
07:18 AM 39.7°F4.3°C 38.1°F3.4°C 94% 5.0 mph ENE8.0 kmh ENE 11.0 mph17.7 kmh 29.20 in988.8 mb 0.00 in0.0 mm 0.00 in0.0 mm 0.02 in0.5 mm
07:21 AM 39.7°F4.3°C 38.1°F3.4°C 94% 5.0 mph ENE8.0 kmh ENE 10.0 mph16.1 kmh 29.20 in988.8 mb 0.00 in0.0 mm 0.00 in0.0 mm 0.02 in0.5 mm
07:24 AM 39.7°F4.3°C 38.1°F3.4°C 94% 5.0 mph ENE8.0 kmh ENE 10.0 mph16.1 kmh 29.20 in988.8 mb 0.00 in0.0 mm 0.00 in0.0 mm 0.02 in0.5 mm
07:27 AM 39.7°F4.3°C 38.1°F3.4°C 94% 6.0 mph ENE9.7 kmh ENE 11.0 mph17.7 kmh 29.20 in988.8 mb 0.00 in0.0 mm 0.00 in0.0 mm 0.02 in0.5 mm
07:30 AM 39.7°F4.3°C 38.1°F3.4°C 94% 5.0 mph ENE8.0 kmh ENE 11.0 mph17.7 kmh 29.20 in988.8 mb 0.00 in0.0 mm 0.00 in0.0 mm 0.02 in0.5 mm
07:33 AM 39.7°F4.3°C 38.1°F3.4°C 94% 5.0 mph ENE8.0 kmh ENE 11.0 mph17.7 kmh 29.20 in988.8 mb 0.00 in0.0 mm 0.00 in0.0 mm 0.02 in0.5 mm
07:36 AM 39.7°F4.3°C 38.1°F3.4°C 94% 4.0 mph ENE6.4 kmh ENE 10.0 mph16.1 kmh 29.20 in988.8 mb 0.00 in0.0 mm 0.00 in0.0 mm 0.02 in0.5 mm
07:39 AM 39.7°F4.3°C 38.1°F3.4°C 94% 4.0 mph ENE6.4 kmh ENE 10.0 mph16.1 kmh 29.20 in988.8 mb 0.00 in0.0 mm 0.00 in0.0 mm 0.02 in0.5 mm
07:42 AM 39.7°F4.3°C 38.1°F3.4°C 94% 3.0 mph ENE4.8 kmh ENE 8.0 mph12.9 kmh 29.19 in988.5 mb 0.00 in0.0 mm 0.00 in0.0 mm 0.02 in0.5 mm
07:45 AM 39.7°F4.3°C 38.1°F3.4°C 94% 3.0 mph ENE4.8 kmh ENE 8.0 mph12.9 kmh 29.19 in988.5 mb 0.00 in0.0 mm 0.00 in0.0 mm 0.02 in0.5 mm
07:48 AM 39.7°F4.3°C 38.1°F3.4°C 94% 3.0 mph ENE4.8 kmh ENE 8.0 mph12.9 kmh 29.19 in988.5 mb 0.00 in0.0 mm 0.00 in0.0 mm 0.02 in0.5 mm
07:51 AM 39.7°F4.3°C 38.1°F3.4°C 94% 3.0 mph ENE4.8 kmh ENE 8.0 mph12.9 kmh 29.19 in988.5 mb 0.00 in0.0 mm 0.00 in0.0 mm 0.02 in0.5 mm
07:54 AM 39.7°F4.3°C 38.1°F3.4°C 94% 3.0 mph E4.8 kmh E 7.0 mph11.3 kmh 29.19 in988.5 mb 0.00 in0.0 mm 0.00 in0.0 mm 0.02 in0.5 mm
07:57 AM 43.7°F6.5°C 43.0°F6.1°C 97% 3.0 mph E4.8 kmh E 8.0 mph12.9 kmh 29.19 in988.5 mb 0.00 in0.0 mm 0.00 in0.0 mm 0.02 in0.5 mm
08:00 AM 43.9°F6.6°C 43.0°F6.1°C 97% 4.0 mph E6.4 kmh E 10.0 mph16.1 kmh 29.19 in988.5 mb 0.00 in0.0 mm 0.00 in0.0 mm 0.02 in0.5 mm
08:03 AM 43.9°F6.6°C 43.2°F6.2°C 97% 4.0 mph E6.4 kmh E 10.0 mph16.1 kmh 29.19 in988.5 mb 0.00 in0.0 mm 0.00 in0.0 mm 0.02 in0.5 mm
08:06 AM 44.1°F6.7°C 43.2°F6.2°C 97% 4.0 mph ENE6.4 kmh ENE 10.0 mph16.1 kmh 29.19 in988.5 mb 0.00 in0.0 mm 0.00 in0.0 mm 0.02 in0.5 mm
08:09 AM 44.1°F6.7°C 43.3°F6.3°C 97% 4.0 mph ENE6.4 kmh ENE 11.0 mph17.7 kmh 29.19 in988.5 mb 0.00 in0.0 mm 0.00 in0.0 mm 0.02 in0.5 mm
08:12 AM 44.2°F6.8°C 43.3°F6.3°C 97% 3.0 mph ENE4.8 kmh ENE 11.0 mph17.7 kmh 29.19 in988.5 mb 0.00 in0.0 mm 0.00 in0.0 mm 0.02 in0.5 mm
08:15 AM 44.2°F6.8°C 43.3°F6.3°C 97% 3.0 mph E4.8 kmh E 11.0 mph17.7 kmh 29.19 in988.5 mb 0.00 in0.0 mm 0.00 in0.0 mm 0.02 in0.5 mm
08:18 AM 44.2°F6.8°C 43.3°F6.3°C 97% 4.0 mph ENE6.4 kmh ENE 11.0 mph17.7 kmh 29.19 in988.5 mb 0.00 in0.0 mm 0.00 in0.0 mm 0.02 in0.5 mm
08:21 AM 44.2°F6.8°C 43.5°F6.4°C 97% 4.0 mph E6.4 kmh E 10.0 mph16.1 kmh 29.19 in988.5 mb 0.00 in0.0 mm 0.00 in0.0 mm 0.02 in0.5 mm
08:24 AM 44.4°F6.9°C 43.5°F6.4°C 97% 4.0 mph ENE6.4 kmh ENE 10.0 mph16.1 kmh 29.19 in988.5 mb 0.00 in0.0 mm 0.00 in0.0 mm 0.02 in0.5 mm
08:27 AM 44.4°F6.9°C 43.5°F6.4°C 97% 4.0 mph ENE6.4 kmh ENE 10.0 mph16.1 kmh 29.19 in988.5 mb 0.00 in0.0 mm 0.00 in0.0 mm 0.02 in0.5 mm
08:30 AM 44.4°F6.9°C 43.7°F6.5°C 97% 5.0 mph ENE8.0 kmh ENE 11.0 mph17.7 kmh 29.19 in988.5 mb 0.00 in0.0 mm 0.00 in0.0 mm 0.02 in0.5 mm
08:33 AM 44.6°F7.0°C 43.9°F6.6°C 97% 5.0 mph ENE8.0 kmh ENE 11.0 mph17.7 kmh 29.19 in988.5 mb 0.00 in0.0 mm 0.00 in0.0 mm 0.02 in0.5 mm
08:36 AM 44.6°F7.0°C 43.9°F6.6°C 97% 5.0 mph ENE8.0 kmh ENE 11.0 mph17.7 kmh 29.19 in988.5 mb 0.00 in0.0 mm 0.00 in0.0 mm 0.02 in0.5 mm
08:39 AM 44.6°F7.0°C 43.9°F6.6°C 97% 5.0 mph E8.0 kmh E 10.0 mph16.1 kmh 29.19 in988.5 mb 0.00 in0.0 mm 0.00 in0.0 mm 0.02 in0.5 mm
08:42 AM 44.6°F7.0°C 43.9°F6.6°C 97% 4.0 mph ENE6.4 kmh ENE 10.0 mph16.1 kmh 29.18 in988.1 mb 0.00 in0.0 mm 0.00 in0.0 mm 0.02 in0.5 mm
08:45 AM 44.8°F7.1°C 44.1°F6.7°C 97% 4.0 mph ENE6.4 kmh ENE 10.0 mph16.1 kmh 29.18 in988.1 mb 0.00 in0.0 mm 0.00 in0.0 mm 0.02 in0.5 mm
08:48 AM 44.8°F7.1°C 44.1°F6.7°C 97% 3.0 mph ENE4.8 kmh ENE 8.0 mph12.9 kmh 29.19 in988.5 mb 0.01 in0.3 mm 0.20 in5.1 mm 0.02 in0.5 mm
08:51 AM 44.8°F7.1°C 44.1°F6.7°C 97% 4.0 mph ENE6.4 kmh ENE 8.0 mph12.9 kmh 29.18 in988.1 mb 0.01 in0.3 mm 0.00 in0.0 mm 0.02 in0.5 mm
08:54 AM 44.8°F7.1°C 44.1°F6.7°C 97% 4.0 mph E6.4 kmh E 10.0 mph16.1 kmh 29.18 in988.1 mb 0.01 in0.3 mm 0.00 in0.0 mm 0.02 in0.5 mm
08:57 AM 44.8°F7.1°C 44.1°F6.7°C 97% 4.0 mph ENE6.4 kmh ENE 10.0 mph16.1 kmh 29.18 in988.1 mb 0.01 in0.3 mm 0.00 in0.0 mm 0.02 in0.5 mm
09:00 AM 44.8°F7.1°C 44.1°F6.7°C 97% 4.0 mph ENE6.4 kmh ENE 10.0 mph16.1 kmh 29.18 in988.1 mb 0.01 in0.3 mm 0.00 in0.0 mm 0.02 in0.5 mm
09:03 AM 44.8°F7.1°C 43.9°F6.6°C 97% 4.0 mph ENE6.4 kmh ENE 10.0 mph16.1 kmh 29.18 in988.1 mb 0.01 in0.3 mm 0.00 in0.0 mm 0.02 in0.5 mm
09:06 AM 44.8°F7.1°C 43.9°F6.6°C 97% 4.0 mph ENE6.4 kmh ENE 10.0 mph16.1 kmh 29.18 in988.1 mb 0.01 in0.3 mm 0.00 in0.0 mm 0.02 in0.5 mm
09:09 AM 44.8°F7.1°C 44.1°F6.7°C 97% 4.0 mph ENE6.4 kmh ENE 11.0 mph17.7 kmh 29.18 in988.1 mb 0.01 in0.3 mm 0.00 in0.0 mm 0.02 in0.5 mm
09:12 AM 45.0°F7.2°C 44.1°F6.7°C 97% 5.0 mph ENE8.0 kmh ENE 12.0 mph19.3 kmh 29.18 in988.1 mb 0.01 in0.3 mm 0.00 in0.0 mm 0.02 in0.5 mm
09:15 AM 45.0°F7.2°C 44.2°F6.8°C 97% 5.0 mph ENE8.0 kmh ENE 12.0 mph19.3 kmh 29.18 in988.1 mb 0.01 in0.3 mm 0.00 in0.0 mm 0.02 in0.5 mm
09:18 AM 45.0°F7.2°C 44.2°F6.8°C 97% 4.0 mph ENE6.4 kmh ENE 12.0 mph19.3 kmh 29.18 in988.1 mb 0.01 in0.3 mm 0.00 in0.0 mm 0.02 in0.5 mm
09:21 AM 45.1°F7.3°C 44.2°F6.8°C 97% 4.0 mph E6.4 kmh E 8.0 mph12.9 kmh 29.18 in988.1 mb 0.01 in0.3 mm 0.00 in0.0 mm 0.02 in0.5 mm
09:24 AM 45.1°F7.3°C 44.4°F6.9°C 97% 4.0 mph ENE6.4 kmh ENE 8.0 mph12.9 kmh 29.18 in988.1 mb 0.01 in0.3 mm 0.00 in0.0 mm 0.02 in0.5 mm
09:27 AM 45.3°F7.4°C 44.4°F6.9°C 97% 3.0 mph ENE4.8 kmh ENE 7.0 mph11.3 kmh 29.18 in988.1 mb 0.01 in0.3 mm 0.00 in0.0 mm 0.02 in0.5 mm
09:30 AM 45.3°F7.4°C 44.6°F7.0°C 97% 3.0 mph ENE4.8 kmh ENE 9.0 mph14.5 kmh 29.18 in988.1 mb 0.01 in0.3 mm 0.00 in0.0 mm 0.02 in0.5 mm
09:33 AM 45.5°F7.5°C 44.8°F7.1°C 97% 4.0 mph E6.4 kmh E 9.0 mph14.5 kmh 29.18 in988.1 mb 0.01 in0.3 mm 0.00 in0.0 mm 0.02 in0.5 mm
09:36 AM 45.7°F7.6°C 44.8°F7.1°C 97% 3.0 mph ENE4.8 kmh ENE 9.0 mph14.5 kmh 29.18 in988.1 mb 0.01 in0.3 mm 0.00 in0.0 mm 0.02 in0.5 mm
09:39 AM 45.7°F7.6°C 45.0°F7.2°C 97% 3.0 mph ENE4.8 kmh ENE 9.0 mph14.5 kmh 29.17 in987.8 mb 0.01 in0.3 mm 0.00 in0.0 mm 0.02 in0.5 mm
09:42 AM 45.7°F7.6°C 45.0°F7.2°C 97% 3.0 mph ENE4.8 kmh ENE 9.0 mph14.5 kmh 29.18 in988.1 mb 0.01 in0.3 mm 0.00 in0.0 mm 0.02 in0.5 mm
09:45 AM 45.9°F7.7°C 45.0°F7.2°C 97% 3.0 mph ENE4.8 kmh ENE 9.0 mph14.5 kmh 29.17 in987.8 mb 0.01 in0.3 mm 0.00 in0.0 mm 0.02 in0.5 mm
09:48 AM 45.9°F7.7°C 45.1°F7.3°C 97% 4.0 mph E6.4 kmh E 9.0 mph14.5 kmh 29.17 in987.8 mb 0.00 in0.0 mm 0.00 in0.0 mm 0.02 in0.5 mm
09:51 AM 45.9°F7.7°C 45.1°F7.3°C 97% 4.0 mph E6.4 kmh E 9.0 mph14.5 kmh 29.17 in987.8 mb 0.00 in0.0 mm 0.00 in0.0 mm 0.02 in0.5 mm
09:54 AM 45.9°F7.7°C 45.1°F7.3°C 97% 4.0 mph E6.4 kmh E 8.0 mph12.9 kmh 29.17 in987.8 mb 0.00 in0.0 mm 0.00 in0.0 mm 0.02 in0.5 mm
09:57 AM 45.9°F7.7°C 45.1°F7.3°C 97% 4.0 mph E6.4 kmh E 8.0 mph12.9 kmh 29.17 in987.8 mb 0.00 in0.0 mm 0.00 in0.0 mm 0.02 in0.5 mm
10:00 AM 45.9°F7.7°C 45.1°F7.3°C 97% 4.0 mph E6.4 kmh E 8.0 mph12.9 kmh 29.17 in987.8 mb 0.00 in0.0 mm 0.00 in0.0 mm 0.02 in0.5 mm
10:03 AM 45.9°F7.7°C 45.1°F7.3°C 97% 4.0 mph E6.4 kmh E 9.0 mph14.5 kmh 29.17 in987.8 mb 0.00 in0.0 mm 0.00 in0.0 mm 0.02 in0.5 mm
10:06 AM 45.9°F7.7°C 45.1°F7.3°C 97% 4.0 mph E6.4 kmh E 9.0 mph14.5 kmh 29.17 in987.8 mb 0.00 in0.0 mm 0.00 in0.0 mm 0.02 in0.5 mm
10:09 AM 45.9°F7.7°C 45.1°F7.3°C 97% 5.0 mph E8.0 kmh E 9.0 mph14.5 kmh 29.17 in987.8 mb 0.00 in0.0 mm 0.00 in0.0 mm 0.02 in0.5 mm
10:12 AM 45.9°F7.7°C 45.1°F7.3°C 97% 4.0 mph E6.4 kmh E 9.0 mph14.5 kmh 29.17 in987.8 mb 0.00 in0.0 mm 0.00 in0.0 mm 0.02 in0.5 mm
10:15 AM 46.0°F7.8°C 45.1°F7.3°C 97% 5.0 mph E8.0 kmh E 9.0 mph14.5 kmh 29.17 in987.8 mb 0.00 in0.0 mm 0.00 in0.0 mm 0.02 in0.5 mm
10:18 AM 46.0°F7.8°C 45.3°F7.4°C 97% 4.0 mph E6.4 kmh E 9.0 mph14.5 kmh 29.17 in987.8 mb 0.00 in0.0 mm 0.00 in0.0 mm 0.02 in0.5 mm
10:21 AM 46.2°F7.9°C 45.3°F7.4°C 97% 5.0 mph E8.0 kmh E 9.0 mph14.5 kmh 29.17 in987.8 mb 0.00 in0.0 mm 0.00 in0.0 mm 0.02 in0.5 mm
10:24 AM 46.4°F8.0°C 45.7°F7.6°C 97% 5.0 mph E8.0 kmh E 9.0 mph14.5 kmh 29.17 in987.8 mb 0.00 in0.0 mm 0.00 in0.0 mm 0.02 in0.5 mm
10:27 AM 46.6°F8.1°C 45.9°F7.7°C 97% 5.0 mph E8.0 kmh E 9.0 mph14.5 kmh 29.17 in987.8 mb 0.00 in0.0 mm 0.00 in0.0 mm 0.02 in0.5 mm
10:30 AM 46.8°F8.2°C 45.9°F7.7°C 97% 5.0 mph E8.0 kmh E 9.0 mph14.5 kmh 29.16 in987.5 mb 0.00 in0.0 mm 0.00 in0.0 mm 0.02 in0.5 mm
10:33 AM 46.8°F8.2°C 45.9°F7.7°C 97% 5.0 mph E8.0 kmh E 10.0 mph16.1 kmh 29.16 in987.5 mb 0.00 in0.0 mm 0.00 in0.0 mm 0.02 in0.5 mm
10:36 AM 46.8°F8.2°C 46.0°F7.8°C 97% 5.0 mph E8.0 kmh E 10.0 mph16.1 kmh 29.16 in987.5 mb 0.00 in0.0 mm 0.00 in0.0 mm 0.02 in0.5 mm
10:39 AM 46.8°F8.2°C 46.0°F7.8°C 97% 5.0 mph E8.0 kmh E 10.0 mph16.1 kmh 29.16 in987.5 mb 0.00 in0.0 mm 0.00 in0.0 mm 0.02 in0.5 mm
10:42 AM 46.9°F8.3°C 46.0°F7.8°C 97% 5.0 mph E8.0 kmh E 9.0 mph14.5 kmh 29.16 in987.5 mb 0.00 in0.0 mm 0.00 in0.0 mm 0.02 in0.5 mm
10:45 AM 46.9°F8.3°C 46.0°F7.8°C 97% 5.0 mph E8.0 kmh E 9.0 mph14.5 kmh 29.16 in987.5 mb 0.00 in0.0 mm 0.00 in0.0 mm 0.02 in0.5 mm
10:48 AM 46.9°F8.3°C 46.0°F7.8°C 97% 5.0 mph E8.0 kmh E 10.0 mph16.1 kmh 29.16 in987.5 mb 0.00 in0.0 mm 0.00 in0.0 mm 0.02 in0.5 mm
10:51 AM 46.8°F8.2°C 46.0°F7.8°C 97% 5.0 mph E8.0 kmh E 11.0 mph17.7 kmh 29.16 in987.5 mb 0.00 in0.0 mm 0.00 in0.0 mm 0.02 in0.5 mm
10:54 AM 46.8°F8.2°C 46.0°F7.8°C 97% 6.0 mph E9.7 kmh E 11.0 mph17.7 kmh 29.16 in987.5 mb 0.00 in0.0 mm 0.00 in0.0 mm 0.02 in0.5 mm
10:57 AM 46.8°F8.2°C 45.9°F7.7°C 97% 5.0 mph E8.0 kmh E 11.0 mph17.7 kmh 29.16 in987.5 mb 0.00 in0.0 mm 0.00 in0.0 mm 0.02 in0.5 mm
11:00 AM 46.8°F8.2°C 45.9°F7.7°C 97% 5.0 mph E8.0 kmh E 11.0 mph17.7 kmh 29.16 in987.5 mb 0.00 in0.0 mm 0.00 in0.0 mm 0.02 in0.5 mm
11:03 AM 46.8°F8.2°C 45.9°F7.7°C 97% 5.0 mph E8.0 kmh E 10.0 mph16.1 kmh 29.16 in987.5 mb 0.00 in0.0 mm 0.00 in0.0 mm 0.02 in0.5 mm
11:06 AM 46.8°F8.2°C 46.0°F7.8°C 97% 5.0 mph E8.0 kmh E 8.0 mph12.9 kmh 29.16 in987.5 mb 0.00 in0.0 mm 0.00 in0.0 mm 0.02 in0.5 mm
11:09 AM 46.9°F8.3°C 46.0°F7.8°C 97% 5.0 mph E8.0 kmh E 10.0 mph16.1 kmh 29.16 in987.5 mb 0.00 in0.0 mm 0.00 in0.0 mm 0.02 in0.5 mm
11:12 AM 46.9°F8.3°C 46.0°F7.8°C 97% 6.0 mph E9.7 kmh E 10.0 mph16.1 kmh 29.16 in987.5 mb 0.00 in0.0 mm 0.00 in0.0 mm 0.02 in0.5 mm
11:15 AM 46.9°F8.3°C 46.2°F7.9°C 97% 5.0 mph E8.0 kmh E 10.0 mph16.1 kmh 29.16 in987.5 mb 0.00 in0.0 mm 0.00 in0.0 mm 0.02 in0.5 mm
11:18 AM 47.1°F8.4°C 46.2°F7.9°C 97% 5.0 mph E8.0 kmh E 9.0 mph14.5 kmh 29.16 in987.5 mb 0.00 in0.0 mm 0.00 in0.0 mm 0.02 in0.5 mm
11:21 AM 47.1°F8.4°C 46.4°F8.0°C 97% 5.0 mph E8.0 kmh E 9.0 mph14.5 kmh 29.16 in987.5 mb 0.00 in0.0 mm 0.00 in0.0 mm 0.02 in0.5 mm
11:24 AM 47.3°F8.5°C 46.6°F8.1°C 97% 5.0 mph E8.0 kmh E 9.0 mph14.5 kmh 29.16 in987.5 mb 0.00 in0.0 mm 0.00 in0.0 mm 0.02 in0.5 mm
11:27 AM 47.3°F8.5°C 46.6°F8.1°C 97% 5.0 mph E8.0 kmh E 9.0 mph14.5 kmh 29.16 in987.5 mb 0.00 in0.0 mm 0.00 in0.0 mm 0.02 in0.5 mm
11:30 AM 47.1°F8.4°C 46.4°F8.0°C 97% 5.0 mph E8.0 kmh E 9.0 mph14.5 kmh 29.15 in987.1 mb 0.00 in0.0 mm 0.00 in0.0 mm 0.02 in0.5 mm
11:33 AM 47.1°F8.4°C 46.4°F8.0°C 97% 5.0 mph E8.0 kmh E 9.0 mph14.5 kmh 29.15 in987.1 mb 0.00 in0.0 mm 0.00 in0.0 mm 0.02 in0.5 mm
11:36 AM 47.1°F8.4°C 46.4°F8.0°C 97% 5.0 mph E8.0 kmh E 9.0 mph14.5 kmh 29.15 in987.1 mb 0.00 in0.0 mm 0.00 in0.0 mm 0.02 in0.5 mm
11:39 AM 47.1°F8.4°C 46.4°F8.0°C 97% 5.0 mph E8.0 kmh E 9.0 mph14.5 kmh 29.15 in987.1 mb 0.00 in0.0 mm 0.00 in0.0 mm 0.02 in0.5 mm
11:42 AM 47.1°F8.4°C 46.4°F8.0°C 97% 5.0 mph E8.0 kmh E 9.0 mph14.5 kmh 29.15 in987.1 mb 0.00 in0.0 mm 0.00 in0.0 mm 0.02 in0.5 mm
11:45 AM 47.3°F8.5°C 46.6°F8.1°C 97% 4.0 mph E6.4 kmh E 8.0 mph12.9 kmh 29.15 in987.1 mb 0.00 in0.0 mm 0.00 in0.0 mm 0.02 in0.5 mm
11:48 AM 47.5°F8.6°C 46.6°F8.1°C 97% 4.0 mph E6.4 kmh E 8.0 mph12.9 kmh 29.15 in987.1 mb 0.00 in0.0 mm 0.00 in0.0 mm 0.02 in0.5 mm
11:51 AM 47.7°F8.7°C 46.8°F8.2°C 97% 4.0 mph E6.4 kmh E 8.0 mph12.9 kmh 29.15 in987.1 mb 0.00 in0.0 mm 0.00 in0.0 mm 0.02 in0.5 mm
11:54 AM 47.7°F8.7°C 46.9°F8.3°C 97% 4.0 mph E6.4 kmh E 7.0 mph11.3 kmh 29.15 in987.1 mb 0.00 in0.0 mm 0.00 in0.0 mm 0.02 in0.5 mm
11:57 AM 47.8°F8.8°C 46.9°F8.3°C 97% 4.0 mph E6.4 kmh E 7.0 mph11.3 kmh 29.15 in987.1 mb 0.00 in0.0 mm 0.00 in0.0 mm 0.02 in0.5 mm
12:00 PM 48.0°F8.9°C 47.5°F8.6°C 98% 4.0 mph E6.4 kmh E 7.0 mph11.3 kmh 29.15 in987.1 mb 0.00 in0.0 mm 0.00 in0.0 mm 0.02 in0.5 mm
12:03 PM 48.0°F8.9°C 47.5°F8.6°C 98% 3.0 mph ESE4.8 kmh ESE 7.0 mph11.3 kmh 29.15 in987.1 mb 0.00 in0.0 mm 0.00 in0.0 mm 0.02 in0.5 mm
12:06 PM 48.0°F8.9°C 47.5°F8.6°C 98% 3.0 mph ESE4.8 kmh ESE 7.0 mph11.3 kmh 29.15 in987.1 mb 0.00 in0.0 mm 0.00 in0.0 mm 0.02 in0.5 mm
12:09 PM 48.2°F9.0°C 47.3°F8.5°C 97% 3.0 mph ESE4.8 kmh ESE 7.0 mph11.3 kmh 29.15 in987.1 mb 0.00 in0.0 mm 0.00 in0.0 mm 0.02 in0.5 mm
12:12 PM 48.2°F9.0°C 47.3°F8.5°C 97% 3.0 mph ESE4.8 kmh ESE 7.0 mph11.3 kmh 29.15 in987.1 mb 0.00 in0.0 mm 0.00 in0.0 mm 0.02 in0.5 mm
12:15 PM 48.2°F9.0°C 47.3°F8.5°C 97% 4.0 mph SE6.4 kmh SE 7.0 mph11.3 kmh 29.15 in987.1 mb 0.00 in0.0 mm 0.00 in0.0 mm 0.02 in0.5 mm
12:18 PM 48.4°F9.1°C 47.5°F8.6°C 97% 3.0 mph SE4.8 kmh SE 7.0 mph11.3 kmh 29.15 in987.1 mb 0.00 in0.0 mm 0.00 in0.0 mm 0.02 in0.5 mm
12:21 PM 48.4°F9.1°C 47.5°F8.6°C 97% 3.0 mph SE4.8 kmh SE 7.0 mph11.3 kmh 29.15 in987.1 mb 0.00 in0.0 mm 0.00 in0.0 mm 0.02 in0.5 mm
12:24 PM 48.4°F9.1°C 47.7°F8.7°C 97% 3.0 mph SE4.8 kmh SE 7.0 mph11.3 kmh 29.15 in987.1 mb 0.00 in0.0 mm 0.00 in0.0 mm 0.02 in0.5 mm
12:27 PM 48.4°F9.1°C 47.8°F8.8°C 98% 2.0 mph SE3.2 kmh SE 4.0 mph6.4 kmh 29.15 in987.1 mb 0.00 in0.0 mm 0.00 in0.0 mm 0.02 in0.5 mm
12:30 PM 48.6°F9.2°C 48.0°F8.9°C 98% 2.0 mph SE3.2 kmh SE 4.0 mph6.4 kmh 29.15 in987.1 mb 0.00 in0.0 mm 0.00 in0.0 mm 0.02 in0.5 mm
12:33 PM 48.6°F9.2°C 48.0°F8.9°C 98% 3.0 mph SE4.8 kmh SE 5.0 mph8.0 kmh 29.15 in987.1 mb 0.00 in0.0 mm 0.00 in0.0 mm 0.02 in0.5 mm
12:36 PM 48.6°F9.2°C 48.0°F8.9°C 98% 3.0 mph SE4.8 kmh SE 5.0 mph8.0 kmh 29.15 in987.1 mb 0.00 in0.0 mm 0.00 in0.0 mm 0.02 in0.5 mm
12:39 PM 48.6°F9.2°C 47.7°F8.7°C 97% 3.0 mph SE4.8 kmh SE 6.0 mph9.7 kmh 29.15 in987.1 mb 0.00 in0.0 mm 0.00 in0.0 mm 0.02 in0.5 mm
12:42 PM 48.6°F9.2°C 47.7°F8.7°C 97% 3.0 mph SE4.8 kmh SE 6.0 mph9.7 kmh 29.15 in987.1 mb 0.00 in0.0 mm 0.00 in0.0 mm 0.02 in0.5 mm
12:45 PM 48.6°F9.2°C 47.7°F8.7°C 97% 3.0 mph SE4.8 kmh SE 6.0 mph9.7 kmh 29.15 in987.1 mb 0.00 in0.0 mm 0.00 in0.0 mm 0.02 in0.5 mm
12:48 PM 48.6°F9.2°C 47.8°F8.8°C 97% 3.0 mph SSE4.8 kmh SSE 6.0 mph9.7 kmh 29.15 in987.1 mb 0.00 in0.0 mm 0.00 in0.0 mm 0.02 in0.5 mm
12:51 PM 48.6°F9.2°C 47.8°F8.8°C 97% 4.0 mph SSE6.4 kmh SSE 9.0 mph14.5 kmh 29.15 in987.1 mb 0.00 in0.0 mm 0.00 in0.0 mm 0.02 in0.5 mm
12:54 PM 48.6°F9.2°C 47.8°F8.8°C 97% 4.0 mph SSE6.4 kmh SSE 9.0 mph14.5 kmh 29.15 in987.1 mb 0.00 in0.0 mm 0.00 in0.0 mm 0.02 in0.5 mm
12:57 PM 48.6°F9.2°C 47.8°F8.8°C 97% 4.0 mph SSE6.4 kmh SSE 9.0 mph14.5 kmh 29.15 in987.1 mb 0.00 in0.0 mm 0.00 in0.0 mm 0.02 in0.5 mm
01:00 PM 48.7°F9.3°C 47.8°F8.8°C 97% 4.0 mph SSE6.4 kmh SSE 7.0 mph11.3 kmh 29.15 in987.1 mb 0.00 in0.0 mm 0.00 in0.0 mm 0.02 in0.5 mm
01:03 PM 48.7°F9.3°C 47.8°F8.8°C 97% 5.0 mph SSE8.0 kmh SSE 7.0 mph11.3 kmh 29.15 in987.1 mb 0.00 in0.0 mm 0.00 in0.0 mm 0.02 in0.5 mm
01:06 PM 48.6°F9.2°C 47.8°F8.8°C 97% 4.0 mph SSE6.4 kmh SSE 7.0 mph11.3 kmh 29.15 in987.1 mb 0.00 in0.0 mm 0.00 in0.0 mm 0.02 in0.5 mm
01:09 PM 48.6°F9.2°C 47.8°F8.8°C 97% 5.0 mph SSE8.0 kmh SSE 7.0 mph11.3 kmh 29.15 in987.1 mb 0.00 in0.0 mm 0.00 in0.0 mm 0.02 in0.5 mm
01:12 PM 48.6°F9.2°C 47.7°F8.7°C 97% 5.0 mph SSE8.0 kmh SSE 7.0 mph11.3 kmh 29.15 in987.1 mb 0.00 in0.0 mm 0.00 in0.0 mm 0.02 in0.5 mm
01:15 PM 48.6°F9.2°C 47.7°F8.7°C 97% 5.0 mph SSE8.0 kmh SSE 7.0 mph11.3 kmh 29.15 in987.1 mb 0.00 in0.0 mm 0.00 in0.0 mm 0.02 in0.5 mm
01:18 PM 48.6°F9.2°C 47.7°F8.7°C 97% 4.0 mph SSE6.4 kmh SSE 7.0 mph11.3 kmh 29.15 in987.1 mb 0.00 in0.0 mm 0.00 in0.0 mm 0.02 in0.5 mm
01:21 PM 48.6°F9.2°C 47.7°F8.7°C 97% 3.0 mph SE4.8 kmh SE 6.0 mph9.7 kmh 29.15 in987.1 mb 0.00 in0.0 mm 0.00 in0.0 mm 0.02 in0.5 mm
01:24 PM 48.6°F9.2°C 47.7°F8.7°C 97% 3.0 mph SE4.8 kmh SE 5.0 mph8.0 kmh 29.15 in987.1 mb 0.00 in0.0 mm 0.00 in0.0 mm 0.02 in0.5 mm
01:27 PM 48.6°F9.2°C 47.7°F8.7°C 97% 3.0 mph SE4.8 kmh SE 5.0 mph8.0 kmh 29.14 in986.8 mb 0.00 in0.0 mm 0.00 in0.0 mm 0.02 in0.5 mm
01:30 PM 48.6°F9.2°C 47.7°F8.7°C 97% 3.0 mph SSE4.8 kmh SSE 5.0 mph8.0 kmh 29.15 in987.1 mb 0.00 in0.0 mm 0.00 in0.0 mm 0.02 in0.5 mm
01:33 PM 48.6°F9.2°C 47.8°F8.8°C 97% 3.0 mph SSE4.8 kmh SSE 5.0 mph8.0 kmh 29.14 in986.8 mb 0.00 in0.0 mm 0.00 in0.0 mm 0.02 in0.5 mm
01:36 PM 48.6°F9.2°C 47.8°F8.8°C 97% 3.0 mph SSE4.8 kmh SSE 4.0 mph6.4 kmh 29.14 in986.8 mb 0.00 in0.0 mm 0.00 in0.0 mm 0.02 in0.5 mm
01:39 PM 48.7°F9.3°C 47.8°F8.8°C 97% 3.0 mph SSE4.8 kmh SSE 5.0 mph8.0 kmh 29.14 in986.8 mb 0.00 in0.0 mm 0.00 in0.0 mm 0.02 in0.5 mm
01:42 PM 48.7°F9.3°C 47.8°F8.8°C 97% 3.0 mph SSE4.8 kmh SSE 5.0 mph8.0 kmh 29.14 in986.8 mb 0.00 in0.0 mm 0.00 in0.0 mm 0.02 in0.5 mm
01:45 PM 48.7°F9.3°C 48.0°F8.9°C 97% 3.0 mph SSE4.8 kmh SSE 5.0 mph8.0 kmh 29.14 in986.8 mb 0.00 in0.0 mm 0.00 in0.0 mm 0.02 in0.5 mm
01:48 PM 48.9°F9.4°C 48.4°F9.1°C 98% 3.0 mph SSE4.8 kmh SSE 5.0 mph8.0 kmh 29.14 in986.8 mb 0.00 in0.0 mm 0.00 in0.0 mm 0.02 in0.5 mm
01:51 PM 49.1°F9.5°C 48.6°F9.2°C 98% 3.0 mph SSE4.8 kmh SSE 5.0 mph8.0 kmh 29.14 in986.8 mb 0.00 in0.0 mm 0.00 in0.0 mm 0.02 in0.5 mm
01:54 PM 48.9°F9.4°C 48.4°F9.1°C 98% 3.0 mph SSE4.8 kmh SSE 7.0 mph11.3 kmh 29.14 in986.8 mb 0.00 in0.0 mm 0.00 in0.0 mm 0.02 in0.5 mm
01:57 PM 48.9°F9.4°C 48.0°F8.9°C 97% 3.0 mph SE4.8 kmh SE 7.0 mph11.3 kmh 29.14 in986.8 mb 0.00 in0.0 mm 0.00 in0.0 mm 0.02 in0.5 mm
02:00 PM 48.9°F9.4°C 48.0°F8.9°C 97% 3.0 mph SE4.8 kmh SE 7.0 mph11.3 kmh 29.14 in986.8 mb 0.00 in0.0 mm 0.00 in0.0 mm 0.02 in0.5 mm
02:03 PM 48.7°F9.3°C 47.8°F8.8°C 97% 3.0 mph SE4.8 kmh SE 5.0 mph8.0 kmh 29.14 in986.8 mb 0.00 in0.0 mm 0.00 in0.0 mm 0.02 in0.5 mm
02:06 PM 48.6°F9.2°C 47.7°F8.7°C 97% 3.0 mph SE4.8 kmh SE 5.0 mph8.0 kmh 29.14 in986.8 mb 0.00 in0.0 mm 0.00 in0.0 mm 0.02 in0.5 mm
02:09 PM 48.4°F9.1°C 47.7°F8.7°C 97% 3.0 mph SE4.8 kmh SE 5.0 mph8.0 kmh 29.14 in986.8 mb 0.00 in0.0 mm 0.00 in0.0 mm 0.02 in0.5 mm
02:12 PM 48.4°F9.1°C 47.5°F8.6°C 97% 3.0 mph SE4.8 kmh SE 5.0 mph8.0 kmh 29.14 in986.8 mb 0.00 in0.0 mm 0.00 in0.0 mm 0.02 in0.5 mm
02:15 PM 48.4°F9.1°C 47.5°F8.6°C 97% 2.0 mph SE3.2 kmh SE 5.0 mph8.0 kmh 29.14 in986.8 mb 0.00 in0.0 mm 0.00 in0.0 mm 0.02 in0.5 mm
02:18 PM 48.4°F9.1°C 47.7°F8.7°C 97% 1.0 mph SE1.6 kmh SE 4.0 mph6.4 kmh 29.14 in986.8 mb 0.00 in0.0 mm 0.00 in0.0 mm 0.02 in0.5 mm
02:21 PM 48.6°F9.2°C 48.0°F8.9°C 98% 1.0 mph SE1.6 kmh SE 3.0 mph4.8 kmh 29.14 in986.8 mb 0.00 in0.0 mm 0.00 in0.0 mm 0.02 in0.5 mm
02:24 PM 48.9°F9.4°C 48.4°F9.1°C 98% 2.0 mph SE3.2 kmh SE 4.0 mph6.4 kmh 29.14 in986.8 mb 0.00 in0.0 mm 0.00 in0.0 mm 0.02 in0.5 mm
02:27 PM 49.1°F9.5°C 48.6°F9.2°C 98% 2.0 mph SSE3.2 kmh SSE 4.0 mph6.4 kmh 29.14 in986.8 mb 0.00 in0.0 mm 0.00 in0.0 mm 0.02 in0.5 mm
02:30 PM 49.5°F9.7°C 48.9°F9.4°C 98% 3.0 mph SSE4.8 kmh SSE 6.0 mph9.7 kmh 29.14 in986.8 mb 0.00 in0.0 mm 0.00 in0.0 mm 0.02 in0.5 mm
02:33 PM 49.6°F9.8°C 49.1°F9.5°C 98% 3.0 mph S4.8 kmh S 10.0 mph16.1 kmh 29.14 in986.8 mb 0.00 in0.0 mm 0.00 in0.0 mm 0.02 in0.5 mm
02:36 PM 49.8°F9.9°C 49.3°F9.6°C 98% 4.0 mph S6.4 kmh S 10.0 mph16.1 kmh 29.14 in986.8 mb 0.00 in0.0 mm 0.00 in0.0 mm 0.02 in0.5 mm
02:39 PM 49.8°F9.9°C 49.3°F9.6°C 98% 4.0 mph S6.4 kmh S 10.0 mph16.1 kmh 29.14 in986.8 mb 0.00 in0.0 mm 0.00 in0.0 mm 0.02 in0.5 mm
02:42 PM 50.2°F10.1°C 49.6°F9.8°C 98% 4.0 mph S6.4 kmh S 9.0 mph14.5 kmh 29.14 in986.8 mb 0.00 in0.0 mm 0.00 in0.0 mm 0.02 in0.5 mm
02:45 PM 50.4°F10.2°C 49.8°F9.9°C 98% 5.0 mph S8.0 kmh S 10.0 mph16.1 kmh 29.13 in986.5 mb 0.00 in0.0 mm 0.00 in0.0 mm 0.02 in0.5 mm
02:48 PM 50.4°F10.2°C 49.8°F9.9°C 98% 5.0 mph S8.0 kmh S 10.0 mph16.1 kmh 29.13 in986.5 mb 0.00 in0.0 mm 0.00 in0.0 mm 0.02 in0.5 mm
02:51 PM 50.4°F10.2°C 49.8°F9.9°C 98% 7.0 mph S11.3 kmh S 12.0 mph19.3 kmh 29.14 in986.8 mb 0.00 in0.0 mm 0.00 in0.0 mm 0.02 in0.5 mm
02:54 PM 50.4°F10.2°C 49.8°F9.9°C 98% 7.0 mph S11.3 kmh S 12.0 mph19.3 kmh 29.13 in986.5 mb 0.00 in0.0 mm 0.00 in0.0 mm 0.02 in0.5 mm
02:57 PM 50.2°F10.1°C 49.5°F9.7°C 97% 7.0 mph S11.3 kmh S 12.0 mph19.3 kmh 29.13 in986.5 mb 0.00 in0.0 mm 0.00 in0.0 mm 0.02 in0.5 mm
03:00 PM 50.2°F10.1°C 49.3°F9.6°C 97% 7.0 mph S11.3 kmh S 12.0 mph19.3 kmh 29.13 in986.5 mb 0.00 in0.0 mm 0.00 in0.0 mm 0.02 in0.5 mm
03:03 PM 50.0°F10.0°C 49.1°F9.5°C 97% 7.0 mph S11.3 kmh S 12.0 mph19.3 kmh 29.13 in986.5 mb 0.00 in0.0 mm 0.00 in0.0 mm 0.02 in0.5 mm
03:06 PM 49.5°F9.7°C 48.7°F9.3°C 97% 8.0 mph S12.9 kmh S 14.0 mph22.5 kmh 29.13 in986.5 mb 0.00 in0.0 mm 0.00 in0.0 mm 0.02 in0.5 mm
03:09 PM 48.9°F9.4°C 48.2°F9.0°C 97% 7.0 mph S11.3 kmh S 14.0 mph22.5 kmh 29.13 in986.5 mb 0.01 in0.3 mm 0.20 in5.1 mm 0.03 in0.8 mm
03:12 PM 48.9°F9.4°C 48.2°F9.0°C 97% 8.0 mph S12.9 kmh S 14.0 mph22.5 kmh 29.13 in986.5 mb 0.01 in0.3 mm 0.00 in0.0 mm 0.03 in0.8 mm
03:15 PM 49.3°F9.6°C 48.6°F9.2°C 97% 8.0 mph S12.9 kmh S 14.0 mph22.5 kmh 29.13 in986.5 mb 0.01 in0.3 mm 0.00 in0.0 mm 0.03 in0.8 mm
03:18 PM 49.5°F9.7°C 48.6°F9.2°C 97% 8.0 mph S12.9 kmh S 12.0 mph19.3 kmh 29.13 in986.5 mb 0.01 in0.3 mm 0.00 in0.0 mm 0.03 in0.8 mm
03:21 PM 49.5°F9.7°C 48.7°F9.3°C 97% 8.0 mph S12.9 kmh S 12.0 mph19.3 kmh 29.13 in986.5 mb 0.01 in0.3 mm 0.00 in0.0 mm 0.03 in0.8 mm
03:24 PM 49.3°F9.6°C 48.4°F9.1°C 97% 7.0 mph S11.3 kmh S 12.0 mph19.3 kmh 29.13 in986.5 mb 0.01 in0.3 mm 0.00 in0.0 mm 0.03 in0.8 mm
03:27 PM 48.9°F9.4°C 48.2°F9.0°C 97% 6.0 mph S9.7 kmh S 11.0 mph17.7 kmh 29.13 in986.5 mb 0.01 in0.3 mm 0.00 in0.0 mm 0.03 in0.8 mm
03:30 PM 48.9°F9.4°C 48.2°F9.0°C 97% 7.0 mph S11.3 kmh S 12.0 mph19.3 kmh 29.13 in986.5 mb 0.01 in0.3 mm 0.00 in0.0 mm 0.03 in0.8 mm
03:33 PM 48.9°F9.4°C 48.2°F9.0°C 97% 7.0 mph S11.3 kmh S 13.0 mph20.9 kmh 29.13 in986.5 mb 0.01 in0.3 mm 0.00 in0.0 mm 0.03 in0.8 mm
03:36 PM 48.9°F9.4°C 48.2°F9.0°C 97% 8.0 mph S12.9 kmh S 15.0 mph24.1 kmh 29.13 in986.5 mb 0.01 in0.3 mm 0.00 in0.0 mm 0.03 in0.8 mm
03:39 PM 48.9°F9.4°C 48.2°F9.0°C 97% 9.0 mph S14.5 kmh S 15.0 mph24.1 kmh 29.13 in986.5 mb 0.01 in0.3 mm 0.00 in0.0 mm 0.03 in0.8 mm
03:42 PM 48.9°F9.4°C 48.2°F9.0°C 97% 10.0 mph S16.1 kmh S 15.0 mph24.1 kmh 29.13 in986.5 mb 0.01 in0.3 mm 0.00 in0.0 mm 0.03 in0.8 mm
03:45 PM 48.9°F9.4°C 48.2°F9.0°C 97% 9.0 mph S14.5 kmh S 15.0 mph24.1 kmh 29.12 in986.1 mb 0.01 in0.3 mm 0.00 in0.0 mm 0.03 in0.8 mm
03:48 PM 48.9°F9.4°C 48.2°F9.0°C 97% 8.0 mph S12.9 kmh S 15.0 mph24.1 kmh 29.13 in986.5 mb 0.01 in0.3 mm 0.00 in0.0 mm 0.03 in0.8 mm
03:51 PM 48.9°F9.4°C 48.0°F8.9°C 97% 6.0 mph S9.7 kmh S 13.0 mph20.9 kmh 29.13 in986.5 mb 0.01 in0.3 mm 0.00 in0.0 mm 0.03 in0.8 mm
03:54 PM 48.6°F9.2°C 47.7°F8.7°C 97% 6.0 mph SSE9.7 kmh SSE 12.0 mph19.3 kmh 29.13 in986.5 mb 0.01 in0.3 mm 0.00 in0.0 mm 0.03 in0.8 mm
03:57 PM 48.4°F9.1°C 47.5°F8.6°C 97% 6.0 mph SSE9.7 kmh SSE 11.0 mph17.7 kmh 29.13 in986.5 mb 0.01 in0.3 mm 0.00 in0.0 mm 0.03 in0.8 mm
04:00 PM 48.0°F8.9°C 47.3°F8.5°C 97% 6.0 mph SSE9.7 kmh SSE 11.0 mph17.7 kmh 29.13 in986.5 mb 0.01 in0.3 mm 0.00 in0.0 mm 0.03 in0.8 mm
04:03 PM 48.0°F8.9°C 47.1°F8.4°C 97% 6.0 mph SSE9.7 kmh SSE 11.0 mph17.7 kmh 29.13 in986.5 mb 0.01 in0.3 mm 0.00 in0.0 mm 0.03 in0.8 mm
04:06 PM 48.0°F8.9°C 47.1°F8.4°C 97% 6.0 mph SSE9.7 kmh SSE 9.0 mph14.5 kmh 29.12 in986.1 mb 0.01 in0.3 mm 0.00 in0.0 mm 0.03 in0.8 mm
04:09 PM 48.0°F8.9°C 47.1°F8.4°C 97% 6.0 mph SSE9.7 kmh SSE 9.0 mph14.5 kmh 29.12 in986.1 mb 0.00 in0.0 mm 0.00 in0.0 mm 0.03 in0.8 mm
04:12 PM 48.0°F8.9°C 47.3°F8.5°C 97% 6.0 mph SSE9.7 kmh SSE 10.0 mph16.1 kmh 29.12 in986.1 mb 0.00 in0.0 mm 0.00 in0.0 mm 0.03 in0.8 mm
04:15 PM 48.2°F9.0°C 47.3°F8.5°C 97% 6.0 mph SSE9.7 kmh SSE 10.0 mph16.1 kmh 29.12 in986.1 mb 0.00 in0.0 mm 0.00 in0.0 mm 0.03 in0.8 mm
04:18 PM 48.4°F9.1°C 47.8°F8.8°C 98% 6.0 mph SSE9.7 kmh SSE 10.0 mph16.1 kmh 29.12 in986.1 mb 0.00 in0.0 mm 0.00 in0.0 mm 0.03 in0.8 mm
04:21 PM 48.6°F9.2°C 48.0°F8.9°C 98% 5.0 mph SSE8.0 kmh SSE 10.0 mph16.1 kmh 29.12 in986.1 mb 0.00 in0.0 mm 0.00 in0.0 mm 0.03 in0.8 mm
04:24 PM 48.7°F9.3°C 48.2°F9.0°C 98% 5.0 mph S8.0 kmh S 8.0 mph12.9 kmh 29.12 in986.1 mb 0.00 in0.0 mm 0.00 in0.0 mm 0.03 in0.8 mm
04:27 PM 49.3°F9.6°C 48.7°F9.3°C 98% 5.0 mph S8.0 kmh S 8.0 mph12.9 kmh 29.12 in986.1 mb 0.00 in0.0 mm 0.00 in0.0 mm 0.03 in0.8 mm
04:30 PM 49.6°F9.8°C 49.1°F9.5°C 98% 5.0 mph S8.0 kmh S 10.0 mph16.1 kmh 29.12 in986.1 mb 0.00 in0.0 mm 0.00 in0.0 mm 0.03 in0.8 mm
04:33 PM 49.6°F9.8°C 49.1°F9.5°C 98% 6.0 mph S9.7 kmh S 11.0 mph17.7 kmh 29.12 in986.1 mb 0.00 in0.0 mm 0.00 in0.0 mm 0.03 in0.8 mm
04:36 PM 49.6°F9.8°C 49.1°F9.5°C 98% 7.0 mph S11.3 kmh S 12.0 mph19.3 kmh 29.12 in986.1 mb 0.00 in0.0 mm 0.00 in0.0 mm 0.03 in0.8 mm
04:39 PM 49.6°F9.8°C 49.1°F9.5°C 98% 7.0 mph S11.3 kmh S 14.0 mph22.5 kmh 29.12 in986.1 mb 0.00 in0.0 mm 0.00 in0.0 mm 0.03 in0.8 mm
04:42 PM 49.6°F9.8°C 48.7°F9.3°C 97% 8.0 mph S12.9 kmh S 14.0 mph22.5 kmh 29.12 in986.1 mb 0.00 in0.0 mm 0.00 in0.0 mm 0.03 in0.8 mm
04:45 PM 49.6°F9.8°C 49.1°F9.5°C 98% 9.0 mph S14.5 kmh S 14.0 mph22.5 kmh 29.12 in986.1 mb 0.00 in0.0 mm 0.00 in0.0 mm 0.03 in0.8 mm
04:48 PM 49.6°F9.8°C 49.1°F9.5°C 98% 9.0 mph S14.5 kmh S 14.0 mph22.5 kmh 29.12 in986.1 mb 0.00 in0.0 mm 0.00 in0.0 mm 0.03 in0.8 mm
04:51 PM 49.6°F9.8°C 49.1°F9.5°C 98% 8.0 mph S12.9 kmh S 14.0 mph22.5 kmh 29.12 in986.1 mb 0.00 in0.0 mm 0.00 in0.0 mm 0.03 in0.8 mm
04:54 PM 49.6°F9.8°C 49.1°F9.5°C 98% 8.0 mph S12.9 kmh S 14.0 mph22.5 kmh 29.12 in986.1 mb 0.00 in0.0 mm 0.00 in0.0 mm 0.03 in0.8 mm
04:57 PM 49.6°F9.8°C 49.1°F9.5°C 98% 8.0 mph S12.9 kmh S 12.0 mph19.3 kmh 29.12 in986.1 mb 0.00 in0.0 mm 0.00 in0.0 mm 0.03 in0.8 mm
05:00 PM 49.8°F9.9°C 49.3°F9.6°C 98% 8.0 mph S12.9 kmh S 16.0 mph25.7 kmh 29.12 in986.1 mb 0.00 in0.0 mm 0.00 in0.0 mm 0.03 in0.8 mm
05:03 PM 49.8°F9.9°C 49.3°F9.6°C 98% 8.0 mph S12.9 kmh S 16.0 mph25.7 kmh 29.12 in986.1 mb 0.00 in0.0 mm 0.00 in0.0 mm 0.03 in0.8 mm
05:06 PM 49.6°F9.8°C 48.9°F9.4°C 97% 9.0 mph S14.5 kmh S 16.0 mph25.7 kmh 29.12 in986.1 mb 0.00 in0.0 mm 0.00 in0.0 mm 0.03 in0.8 mm
05:09 PM 49.6°F9.8°C 48.7°F9.3°C 97% 8.0 mph S12.9 kmh S 12.0 mph19.3 kmh 29.12 in986.1 mb 0.00 in0.0 mm 0.00 in0.0 mm 0.03 in0.8 mm
05:12 PM 49.5°F9.7°C 48.6°F9.2°C 97% 8.0 mph S12.9 kmh S 12.0 mph19.3 kmh 29.11 in985.8 mb 0.00 in0.0 mm 0.00 in0.0 mm 0.03 in0.8 mm
05:15 PM 48.9°F9.4°C 48.2°F9.0°C 97% 8.0 mph S12.9 kmh S 12.0 mph19.3 kmh 29.11 in985.8 mb 0.00 in0.0 mm 0.00 in0.0 mm 0.03 in0.8 mm
05:18 PM 48.7°F9.3°C 47.8°F8.8°C 97% 7.0 mph SSE11.3 kmh SSE 11.0 mph17.7 kmh 29.11 in985.8 mb 0.00 in0.0 mm 0.00 in0.0 mm 0.03 in0.8 mm
05:21 PM 48.6°F9.2°C 47.7°F8.7°C 97% 7.0 mph SSE11.3 kmh SSE 11.0 mph17.7 kmh 29.11 in985.8 mb 0.00 in0.0 mm 0.00 in0.0 mm 0.03 in0.8 mm
05:24 PM 48.4°F9.1°C 47.5°F8.6°C 97% 7.0 mph SSE11.3 kmh SSE 11.0 mph17.7 kmh 29.11 in985.8 mb 0.00 in0.0 mm 0.00 in0.0 mm 0.03 in0.8 mm
05:27 PM 48.2°F9.0°C 47.3°F8.5°C 97% 7.0 mph SSE11.3 kmh SSE 11.0 mph17.7 kmh 29.11 in985.8 mb 0.00 in0.0 mm 0.00 in0.0 mm 0.03 in0.8 mm
05:30 PM 48.0°F8.9°C 47.3°F8.5°C 97% 8.0 mph SSE12.9 kmh SSE 12.0 mph19.3 kmh 29.11 in985.8 mb 0.00 in0.0 mm 0.00 in0.0 mm 0.03 in0.8 mm
05:33 PM 48.0°F8.9°C 47.1°F8.4°C 97% 8.0 mph SSE12.9 kmh SSE 12.0 mph19.3 kmh 29.11 in985.8 mb 0.00 in0.0 mm 0.00 in0.0 mm 0.03 in0.8 mm
05:36 PM 47.8°F8.8°C 47.1°F8.4°C 97% 8.0 mph SSE12.9 kmh SSE 12.0 mph19.3 kmh 29.11 in985.8 mb 0.00 in0.0 mm 0.00 in0.0 mm 0.03 in0.8 mm
05:39 PM 47.8°F8.8°C 47.1°F8.4°C 97% 8.0 mph SSE12.9 kmh SSE 12.0 mph19.3 kmh 29.11 in985.8 mb 0.00 in0.0 mm 0.00 in0.0 mm 0.03 in0.8 mm
05:42 PM 47.8°F8.8°C 46.9°F8.3°C 97% 8.0 mph SSE12.9 kmh SSE 12.0 mph19.3 kmh 29.11 in985.8 mb 0.00 in0.0 mm 0.00 in0.0 mm 0.03 in0.8 mm
05:45 PM 47.7°F8.7°C 46.9°F8.3°C 97% 8.0 mph SSE12.9 kmh SSE 12.0 mph19.3 kmh 29.11 in985.8 mb 0.00 in0.0 mm 0.00 in0.0 mm 0.03 in0.8 mm
05:48 PM 47.7°F8.7°C 46.8°F8.2°C 97% 9.0 mph SSE14.5 kmh SSE 13.0 mph20.9 kmh 29.11 in985.8 mb 0.00 in0.0 mm 0.00 in0.0 mm 0.03 in0.8 mm
05:51 PM 47.7°F8.7°C 46.8°F8.2°C 97% 8.0 mph SSE12.9 kmh SSE 13.0 mph20.9 kmh 29.11 in985.8 mb 0.00 in0.0 mm 0.00 in0.0 mm 0.03 in0.8 mm
05:54 PM 47.5°F8.6°C 46.8°F8.2°C 97% 9.0 mph SSE14.5 kmh SSE 13.0 mph20.9 kmh 29.11 in985.8 mb 0.00 in0.0 mm 0.00 in0.0 mm 0.03 in0.8 mm
05:57 PM 47.5°F8.6°C 46.8°F8.2°C 97% 9.0 mph SSE14.5 kmh SSE 13.0 mph20.9 kmh 29.11 in985.8 mb 0.00 in0.0 mm 0.00 in0.0 mm 0.03 in0.8 mm
06:00 PM 47.5°F8.6°C 46.8°F8.2°C 97% 9.0 mph SSE14.5 kmh SSE 13.0 mph20.9 kmh 29.11 in985.8 mb 0.00 in0.0 mm 0.00 in0.0 mm 0.03 in0.8 mm
06:03 PM 47.5°F8.6°C 46.8°F8.2°C 97% 9.0 mph SSE14.5 kmh SSE 13.0 mph20.9 kmh 29.11 in985.8 mb 0.00 in0.0 mm 0.00 in0.0 mm 0.03 in0.8 mm
06:06 PM 47.5°F8.6°C 46.8°F8.2°C 97% 9.0 mph SSE14.5 kmh SSE 13.0 mph20.9 kmh 29.11 in985.8 mb 0.00 in0.0 mm 0.00 in0.0 mm 0.03 in0.8 mm
06:09 PM 47.5°F8.6°C 46.8°F8.2°C 97% 9.0 mph SSE14.5 kmh SSE 13.0 mph20.9 kmh 29.11 in985.8 mb 0.00 in0.0 mm 0.00 in0.0 mm 0.03 in0.8 mm
06:12 PM 47.5°F8.6°C 46.8°F8.2°C 97% 8.0 mph SSE12.9 kmh SSE 12.0 mph19.3 kmh 29.11 in985.8 mb 0.00 in0.0 mm 0.00 in0.0 mm 0.03 in0.8 mm
06:15 PM 47.5°F8.6°C 46.8°F8.2°C 97% 8.0 mph SSE12.9 kmh SSE 12.0 mph19.3 kmh 29.11 in985.8 mb 0.00 in0.0 mm 0.00 in0.0 mm 0.03 in0.8 mm
06:18 PM 47.5°F8.6°C 46.8°F8.2°C 97% 8.0 mph SSE12.9 kmh SSE 12.0 mph19.3 kmh 29.11 in985.8 mb 0.00 in0.0 mm 0.00 in0.0 mm 0.03 in0.8 mm
06:21 PM 47.5°F8.6°C 46.8°F8.2°C 97% 8.0 mph SSE12.9 kmh SSE 11.0 mph17.7 kmh 29.11 in985.8 mb 0.00 in0.0 mm 0.00 in0.0 mm 0.03 in0.8 mm
06:24 PM 47.5°F8.6°C 46.8°F8.2°C 97% 8.0 mph SSE12.9 kmh SSE 11.0 mph17.7 kmh 29.11 in985.8 mb 0.00 in0.0 mm 0.00 in0.0 mm 0.03 in0.8 mm
06:27 PM 47.5°F8.6°C 46.6°F8.1°C 97% 8.0 mph SSE12.9 kmh SSE 11.0 mph17.7 kmh 29.11 in985.8 mb 0.00 in0.0 mm 0.00 in0.0 mm 0.03 in0.8 mm
06:30 PM 47.5°F8.6°C 46.6°F8.1°C 97% 7.0 mph SSE11.3 kmh SSE 11.0 mph17.7 kmh 29.11 in985.8 mb 0.00 in0.0 mm 0.00 in0.0 mm 0.03 in0.8 mm
06:33 PM 47.5°F8.6°C 46.6°F8.1°C 97% 7.0 mph SSE11.3 kmh SSE 11.0 mph17.7 kmh 29.11 in985.8 mb 0.00 in0.0 mm 0.00 in0.0 mm 0.03 in0.8 mm
06:36 PM 47.5°F8.6°C 46.6°F8.1°C 97% 8.0 mph SSE12.9 kmh SSE 11.0 mph17.7 kmh 29.11 in985.8 mb 0.00 in0.0 mm 0.00 in0.0 mm 0.03 in0.8 mm
06:39 PM 47.5°F8.6°C 46.6°F8.1°C 97% 8.0 mph SSE12.9 kmh SSE 11.0 mph17.7 kmh 29.11 in985.8 mb 0.00 in0.0 mm 0.00 in0.0 mm 0.03 in0.8 mm
06:42 PM 47.3°F8.5°C 46.6°F8.1°C 97% 8.0 mph SSE12.9 kmh SSE 12.0 mph19.3 kmh 29.11 in985.8 mb 0.00 in0.0 mm 0.00 in0.0 mm 0.03 in0.8 mm
06:45 PM 47.3°F8.5°C 46.6°F8.1°C 97% 8.0 mph SSE12.9 kmh SSE 12.0 mph19.3 kmh 29.11 in985.8 mb 0.00 in0.0 mm 0.00 in0.0 mm 0.03 in0.8 mm
06:48 PM 47.3°F8.5°C 46.6°F8.1°C 97% 9.0 mph SSE14.5 kmh SSE 13.0 mph20.9 kmh 29.11 in985.8 mb 0.00 in0.0 mm 0.00 in0.0 mm 0.03 in0.8 mm
06:51 PM 47.3°F8.5°C 46.6°F8.1°C 97% 9.0 mph SSE14.5 kmh SSE 13.0 mph20.9 kmh 29.11 in985.8 mb 0.00 in0.0 mm 0.00 in0.0 mm 0.03 in0.8 mm
06:54 PM 47.3°F8.5°C 46.6°F8.1°C 97% 9.0 mph SSE14.5 kmh SSE 13.0 mph20.9 kmh 29.11 in985.8 mb 0.00 in0.0 mm 0.00 in0.0 mm 0.03 in0.8 mm
06:57 PM 47.3°F8.5°C 46.6°F8.1°C 97% 9.0 mph SSE14.5 kmh SSE 13.0 mph20.9 kmh 29.11 in985.8 mb 0.00 in0.0 mm 0.00 in0.0 mm 0.03 in0.8 mm
07:00 PM 47.3°F8.5°C 46.6°F8.1°C 97% 9.0 mph SSE14.5 kmh SSE 13.0 mph20.9 kmh 29.11 in985.8 mb 0.00 in0.0 mm 0.00 in0.0 mm 0.03 in0.8 mm
07:03 PM 47.3°F8.5°C 46.6°F8.1°C 97% 9.0 mph SSE14.5 kmh SSE 16.0 mph25.7 kmh 29.11 in985.8 mb 0.00 in0.0 mm 0.00 in0.0 mm 0.03 in0.8 mm
07:06 PM 47.3°F8.5°C 46.6°F8.1°C 97% 9.0 mph SSE14.5 kmh SSE 16.0 mph25.7 kmh 29.11 in985.8 mb 0.00 in0.0 mm 0.00 in0.0 mm 0.03 in0.8 mm
07:09 PM 47.3°F8.5°C 46.6°F8.1°C 97% 9.0 mph SSE14.5 kmh SSE 16.0 mph25.7 kmh 29.11 in985.8 mb 0.00 in0.0 mm 0.00 in0.0 mm 0.03 in0.8 mm
07:12 PM 47.3°F8.5°C 46.6°F8.1°C 97% 9.0 mph SSE14.5 kmh SSE 12.0 mph19.3 kmh 29.11 in985.8 mb 0.00 in0.0 mm 0.00 in0.0 mm 0.03 in0.8 mm
07:15 PM 47.3°F8.5°C 46.6°F8.1°C 97% 9.0 mph SSE14.5 kmh SSE 13.0 mph20.9 kmh 29.11 in985.8 mb 0.00 in0.0 mm 0.00 in0.0 mm 0.03 in0.8 mm
07:18 PM 47.3°F8.5°C 46.6°F8.1°C 97% 9.0 mph SSE14.5 kmh SSE 13.0 mph20.9 kmh 29.11 in985.8 mb 0.00 in0.0 mm 0.00 in0.0 mm 0.03 in0.8 mm
07:21 PM 47.3°F8.5°C 46.6°F8.1°C 97% 9.0 mph SSE14.5 kmh SSE 13.0 mph20.9 kmh 29.11 in985.8 mb 0.00 in0.0 mm 0.00 in0.0 mm 0.03 in0.8 mm
07:24 PM 47.3°F8.5°C 46.6°F8.1°C 97% 9.0 mph SSE14.5 kmh SSE 13.0 mph20.9 kmh 29.11 in985.8 mb 0.00 in0.0 mm 0.00 in0.0 mm 0.03 in0.8 mm
07:27 PM 47.3°F8.5°C 46.6°F8.1°C 97% 9.0 mph SSE14.5 kmh SSE 13.0 mph20.9 kmh 29.11 in985.8 mb 0.00 in0.0 mm 0.00 in0.0 mm 0.03 in0.8 mm
07:30 PM 47.3°F8.5°C 46.6°F8.1°C 97% 10.0 mph SSE16.1 kmh SSE 14.0 mph22.5 kmh 29.11 in985.8 mb 0.00 in0.0 mm 0.00 in0.0 mm 0.03 in0.8 mm
07:33 PM 47.3°F8.5°C 46.6°F8.1°C 97% 11.0 mph SSE17.7 kmh SSE 15.0 mph24.1 kmh 29.11 in985.8 mb 0.00 in0.0 mm 0.00 in0.0 mm 0.03 in0.8 mm
07:36 PM 47.3°F8.5°C 46.6°F8.1°C 97% 11.0 mph SSE17.7 kmh SSE 16.0 mph25.7 kmh 29.11 in985.8 mb 0.00 in0.0 mm 0.00 in0.0 mm 0.03 in0.8 mm
07:39 PM 47.3°F8.5°C 46.6°F8.1°C 97% 11.0 mph SSE17.7 kmh SSE 17.0 mph27.4 kmh 29.11 in985.8 mb 0.00 in0.0 mm 0.00 in0.0 mm 0.03 in0.8 mm
07:42 PM 47.3°F8.5°C 46.6°F8.1°C 97% 11.0 mph SSE17.7 kmh SSE 17.0 mph27.4 kmh 29.11 in985.8 mb 0.00 in0.0 mm 0.00 in0.0 mm 0.03 in0.8 mm
07:45 PM 47.3°F8.5°C 46.6°F8.1°C 97% 11.0 mph SSE17.7 kmh SSE 17.0 mph27.4 kmh 29.11 in985.8 mb 0.00 in0.0 mm 0.00 in0.0 mm 0.03 in0.8 mm
07:48 PM 47.3°F8.5°C 46.6°F8.1°C 97% 11.0 mph SSE17.7 kmh SSE 16.0 mph25.7 kmh 29.11 in985.8 mb 0.00 in0.0 mm 0.00 in0.0 mm 0.03 in0.8 mm
07:51 PM 47.3°F8.5°C 46.6°F8.1°C 97% 11.0 mph SSE17.7 kmh SSE 16.0 mph25.7 kmh 29.11 in985.8 mb 0.00 in0.0 mm 0.00 in0.0 mm 0.03 in0.8 mm
07:54 PM 47.3°F8.5°C 46.6°F8.1°C 97% 11.0 mph SSE17.7 kmh SSE 16.0 mph25.7 kmh 29.11 in985.8 mb 0.00 in0.0 mm 0.00 in0.0 mm 0.03 in0.8 mm
07:57 PM 47.3°F8.5°C 46.6°F8.1°C 97% 11.0 mph SSE17.7 kmh SSE 19.0 mph30.6 kmh 29.11 in985.8 mb 0.00 in0.0 mm 0.00 in0.0 mm 0.03 in0.8 mm
08:00 PM 47.3°F8.5°C 46.6°F8.1°C 97% 12.0 mph SSE19.3 kmh SSE 19.0 mph30.6 kmh 29.11 in985.8 mb 0.00 in0.0 mm 0.00 in0.0 mm 0.03 in0.8 mm
08:03 PM 47.3°F8.5°C 46.6°F8.1°C 97% 12.0 mph SSE19.3 kmh SSE 19.0 mph30.6 kmh 29.11 in985.8 mb 0.00 in0.0 mm 0.00 in0.0 mm 0.03 in0.8 mm
08:06 PM 47.3°F8.5°C 46.6°F8.1°C 97% 12.0 mph SSE19.3 kmh SSE 17.0 mph27.4 kmh 29.11 in985.8 mb 0.00 in0.0 mm 0.00 in0.0 mm 0.03 in0.8 mm
08:09 PM 47.3°F8.5°C 46.6°F8.1°C 97% 12.0 mph SSE19.3 kmh SSE 17.0 mph27.4 kmh 29.11 in985.8 mb 0.00 in0.0 mm 0.00 in0.0 mm 0.03 in0.8 mm
08:12 PM 47.3°F8.5°C 46.6°F8.1°C 97% 12.0 mph SSE19.3 kmh SSE 17.0 mph27.4 kmh 29.11 in985.8 mb 0.00 in0.0 mm 0.00 in0.0 mm 0.03 in0.8 mm
08:15 PM 47.3°F8.5°C 46.6°F8.1°C 97% 12.0 mph SSE19.3 kmh SSE 17.0 mph27.4 kmh 29.11 in985.8 mb 0.00 in0.0 mm 0.00 in0.0 mm 0.03 in0.8 mm
08:18 PM 47.3°F8.5°C 46.6°F8.1°C 97% 13.0 mph SSE20.9 kmh SSE 17.0 mph27.4 kmh 29.11 in985.8 mb 0.00 in0.0 mm 0.00 in0.0 mm 0.03 in0.8 mm
08:21 PM 47.3°F8.5°C 46.6°F8.1°C 97% 13.0 mph SSE20.9 kmh SSE 20.0 mph32.2 kmh 29.11 in985.8 mb 0.00 in0.0 mm 0.00 in0.0 mm 0.03 in0.8 mm
08:24 PM 47.3°F8.5°C 46.6°F8.1°C 97% 13.0 mph SSE20.9 kmh SSE 20.0 mph32.2 kmh 29.11 in985.8 mb 0.00 in0.0 mm 0.00 in0.0 mm 0.03 in0.8 mm
08:27 PM 47.3°F8.5°C 46.6°F8.1°C 97% 13.0 mph SSE20.9 kmh SSE 20.0 mph32.2 kmh 29.11 in985.8 mb 0.00 in0.0 mm 0.00 in0.0 mm 0.03 in0.8 mm
08:30 PM 47.3°F8.5°C 46.6°F8.1°C 97% 13.0 mph SSE20.9 kmh SSE 19.0 mph30.6 kmh 29.11 in985.8 mb 0.00 in0.0 mm 0.00 in0.0 mm 0.03 in0.8 mm
08:33 PM 47.3°F8.5°C 46.6°F8.1°C 97% 12.0 mph SSE19.3 kmh SSE 19.0 mph30.6 kmh 29.11 in985.8 mb 0.00 in0.0 mm 0.00 in0.0 mm 0.03 in0.8 mm
08:36 PM 47.3°F8.5°C 46.6°F8.1°C 97% 12.0 mph SSE19.3 kmh SSE 19.0 mph30.6 kmh 29.11 in985.8 mb 0.00 in0.0 mm 0.00 in0.0 mm 0.03 in0.8 mm
08:39 PM 47.3°F8.5°C 46.6°F8.1°C 97% 12.0 mph SSE19.3 kmh SSE 19.0 mph30.6 kmh 29.11 in985.8 mb 0.00 in0.0 mm 0.00 in0.0 mm 0.03 in0.8 mm
08:42 PM 47.3°F8.5°C 46.6°F8.1°C 97% 12.0 mph SSE19.3 kmh SSE 17.0 mph27.4 kmh 29.11 in985.8 mb 0.00 in0.0 mm 0.00 in0.0 mm 0.03 in0.8 mm
08:45 PM 47.3°F8.5°C 46.6°F8.1°C 97% 12.0 mph SSE19.3 kmh SSE 17.0 mph27.4 kmh 29.11 in985.8 mb 0.00 in0.0 mm 0.00 in0.0 mm 0.03 in0.8 mm
08:48 PM 47.3°F8.5°C 46.6°F8.1°C 97% 12.0 mph SSE19.3 kmh SSE 18.0 mph29.0 kmh 29.11 in985.8 mb 0.00 in0.0 mm 0.00 in0.0 mm 0.03 in0.8 mm
08:51 PM 47.3°F8.5°C 46.6°F8.1°C 97% 12.0 mph SSE19.3 kmh SSE 18.0 mph29.0 kmh 29.11 in985.8 mb 0.00 in0.0 mm 0.00 in0.0 mm 0.03 in0.8 mm
08:54 PM 47.3°F8.5°C 46.6°F8.1°C 97% 13.0 mph SSE20.9 kmh SSE 18.0 mph29.0 kmh 29.11 in985.8 mb 0.00 in0.0 mm 0.00 in0.0 mm 0.03 in0.8 mm
08:57 PM 47.3°F8.5°C 46.6°F8.1°C 97% 12.0 mph SSE19.3 kmh SSE 18.0 mph29.0 kmh 29.10 in985.4 mb 0.00 in0.0 mm 0.00 in0.0 mm 0.03 in0.8 mm
09:00 PM 47.3°F8.5°C 46.6°F8.1°C 97% 12.0 mph SSE19.3 kmh SSE 18.0 mph29.0 kmh 29.10 in985.4 mb 0.00 in0.0 mm 0.00 in0.0 mm 0.03 in0.8 mm
09:03 PM 47.3°F8.5°C 46.6°F8.1°C 97% 12.0 mph SSE19.3 kmh SSE 18.0 mph29.0 kmh 29.10 in985.4 mb 0.00 in0.0 mm 0.00 in0.0 mm 0.03 in0.8 mm
09:06 PM 47.3°F8.5°C 46.6°F8.1°C 97% 11.0 mph SSE17.7 kmh SSE 17.0 mph27.4 kmh 29.10 in985.4 mb 0.00 in0.0 mm 0.00 in0.0 mm 0.03 in0.8 mm
09:09 PM 47.3°F8.5°C 46.6°F8.1°C 97% 12.0 mph SSE19.3 kmh SSE 17.0 mph27.4 kmh 29.10 in985.4 mb 0.00 in0.0 mm 0.00 in0.0 mm 0.03 in0.8 mm
09:12 PM 47.3°F8.5°C 46.6°F8.1°C 97% 11.0 mph SSE17.7 kmh SSE 16.0 mph25.7 kmh 29.10 in985.4 mb 0.00 in0.0 mm 0.00 in0.0 mm 0.03 in0.8 mm
09:15 PM 47.3°F8.5°C 46.6°F8.1°C 97% 10.0 mph SSE16.1 kmh SSE 16.0 mph25.7 kmh 29.10 in985.4 mb 0.00 in0.0 mm 0.00 in0.0 mm 0.03 in0.8 mm
09:18 PM 47.3°F8.5°C 46.6°F8.1°C 97% 10.0 mph SSE16.1 kmh SSE 15.0 mph24.1 kmh 29.10 in985.4 mb 0.00 in0.0 mm 0.00 in0.0 mm 0.03 in0.8 mm
09:21 PM 47.3°F8.5°C 46.6°F8.1°C 97% 9.0 mph SSE14.5 kmh SSE 15.0 mph24.1 kmh 29.10 in985.4 mb 0.00 in0.0 mm 0.00 in0.0 mm 0.03 in0.8 mm
09:24 PM 47.3°F8.5°C 46.6°F8.1°C 97% 9.0 mph SSE14.5 kmh SSE 13.0 mph20.9 kmh 29.10 in985.4 mb 0.00 in0.0 mm 0.00 in0.0 mm 0.03 in0.8 mm
09:27 PM 47.3°F8.5°C 46.6°F8.1°C 97% 9.0 mph SSE14.5 kmh SSE 15.0 mph24.1 kmh 29.10 in985.4 mb 0.00 in0.0 mm 0.00 in0.0 mm 0.03 in0.8 mm
09:30 PM 47.3°F8.5°C 46.6°F8.1°C 97% 10.0 mph SSE16.1 kmh SSE 17.0 mph27.4 kmh 29.10 in985.4 mb 0.00 in0.0 mm 0.00 in0.0 mm 0.03 in0.8 mm
09:33 PM 47.3°F8.5°C 46.6°F8.1°C 97% 12.0 mph SSE19.3 kmh SSE 19.0 mph30.6 kmh 29.10 in985.4 mb 0.00 in0.0 mm 0.00 in0.0 mm 0.03 in0.8 mm
09:36 PM 47.3°F8.5°C 46.6°F8.1°C 97% 12.0 mph SSE19.3 kmh SSE 19.0 mph30.6 kmh 29.10 in985.4 mb 0.00 in0.0 mm 0.00 in0.0 mm 0.03 in0.8 mm
09:39 PM 47.3°F8.5°C 46.6°F8.1°C 97% 12.0 mph SSE19.3 kmh SSE 19.0 mph30.6 kmh 29.10 in985.4 mb 0.00 in0.0 mm 0.00 in0.0 mm 0.03 in0.8 mm
09:42 PM 47.3°F8.5°C 46.6°F8.1°C 97% 12.0 mph SSE19.3 kmh SSE 17.0 mph27.4 kmh 29.10 in985.4 mb 0.00 in0.0 mm 0.00 in0.0 mm 0.03 in0.8 mm
09:45 PM 47.3°F8.5°C 46.6°F8.1°C 97% 11.0 mph SSE17.7 kmh SSE 17.0 mph27.4 kmh 29.10 in985.4 mb 0.00 in0.0 mm 0.00 in0.0 mm 0.03 in0.8 mm
09:48 PM 47.3°F8.5°C 46.6°F8.1°C 97% 10.0 mph SSE16.1 kmh SSE 17.0 mph27.4 kmh 29.10 in985.4 mb 0.00 in0.0 mm 0.00 in0.0 mm 0.03 in0.8 mm
09:51 PM 47.3°F8.5°C 46.6°F8.1°C 97% 11.0 mph SSE17.7 kmh SSE 17.0 mph27.4 kmh 29.09 in985.1 mb 0.00 in0.0 mm 0.00 in0.0 mm 0.03 in0.8 mm
09:54 PM 47.3°F8.5°C 46.6°F8.1°C 97% 11.0 mph SSE17.7 kmh SSE 17.0 mph27.4 kmh 29.10 in985.4 mb 0.00 in0.0 mm 0.00 in0.0 mm 0.03 in0.8 mm
09:57 PM 47.3°F8.5°C 46.6°F8.1°C 97% 11.0 mph SSE17.7 kmh SSE 17.0 mph27.4 kmh 29.09 in985.1 mb 0.00 in0.0 mm 0.00 in0.0 mm 0.03 in0.8 mm
10:00 PM 47.3°F8.5°C 46.6°F8.1°C 97% 12.0 mph SSE19.3 kmh SSE 18.0 mph29.0 kmh 29.09 in985.1 mb 0.00 in0.0 mm 0.00 in0.0 mm 0.03 in0.8 mm
10:03 PM 47.3°F8.5°C 46.6°F8.1°C 97% 12.0 mph SSE19.3 kmh SSE 19.0 mph30.6 kmh 29.09 in985.1 mb 0.00 in0.0 mm 0.00 in0.0 mm 0.03 in0.8 mm
10:06 PM 47.3°F8.5°C 46.6°F8.1°C 97% 11.0 mph SSE17.7 kmh SSE 19.0 mph30.6 kmh 29.09 in985.1 mb 0.00 in0.0 mm 0.00 in0.0 mm 0.03 in0.8 mm
10:09 PM 47.3°F8.5°C 46.6°F8.1°C 97% 11.0 mph SSE17.7 kmh SSE 19.0 mph30.6 kmh 29.09 in985.1 mb 0.00 in0.0 mm 0.00 in0.0 mm 0.03 in0.8 mm
10:12 PM 47.3°F8.5°C 46.6°F8.1°C 97% 10.0 mph SSE16.1 kmh SSE 15.0 mph24.1 kmh 29.09 in985.1 mb 0.00 in0.0 mm 0.00 in0.0 mm 0.03 in0.8 mm
10:15 PM 47.3°F8.5°C 46.6°F8.1°C 97% 10.0 mph SSE16.1 kmh SSE 15.0 mph24.1 kmh 29.09 in985.1 mb 0.00 in0.0 mm 0.00 in0.0 mm 0.03 in0.8 mm
10:18 PM 47.3°F8.5°C 46.6°F8.1°C 97% 10.0 mph SSE16.1 kmh SSE 16.0 mph25.7 kmh 29.09 in985.1 mb 0.00 in0.0 mm 0.00 in0.0 mm 0.03 in0.8 mm
10:21 PM 47.3°F8.5°C 46.6°F8.1°C 97% 10.0 mph SSE16.1 kmh SSE 16.0 mph25.7 kmh 29.09 in985.1 mb 0.00 in0.0 mm 0.00 in0.0 mm 0.03 in0.8 mm
10:24 PM 47.3°F8.5°C 46.6°F8.1°C 97% 10.0 mph SSE16.1 kmh SSE 16.0 mph25.7 kmh 29.09 in985.1 mb 0.00 in0.0 mm 0.00 in0.0 mm 0.03 in0.8 mm
10:27 PM 47.3°F8.5°C 46.6°F8.1°C 97% 9.0 mph SSE14.5 kmh SSE 15.0 mph24.1 kmh 29.09 in985.1 mb 0.00 in0.0 mm 0.00 in0.0 mm 0.03 in0.8 mm
10:30 PM 47.3°F8.5°C 46.6°F8.1°C 97% 10.0 mph SSE16.1 kmh SSE 15.0 mph24.1 kmh 29.09 in985.1 mb 0.00 in0.0 mm 0.00 in0.0 mm 0.03 in0.8 mm
10:33 PM 47.3°F8.5°C 46.6°F8.1°C 97% 10.0 mph SSE16.1 kmh SSE 15.0 mph24.1 kmh 29.09 in985.1 mb 0.00 in0.0 mm 0.00 in0.0 mm 0.03 in0.8 mm
10:36 PM 47.3°F8.5°C 46.6°F8.1°C 97% 11.0 mph SSE17.7 kmh SSE 16.0 mph25.7 kmh 29.09 in985.1 mb 0.00 in0.0 mm 0.00 in0.0 mm 0.03 in0.8 mm
10:39 PM 47.3°F8.5°C 46.6°F8.1°C 97% 10.0 mph SSE16.1 kmh SSE 16.0 mph25.7 kmh 29.09 in985.1 mb 0.00 in0.0 mm 0.00 in0.0 mm 0.03 in0.8 mm
10:42 PM 47.3°F8.5°C 46.6°F8.1°C 97% 10.0 mph SSE16.1 kmh SSE 16.0 mph25.7 kmh 29.09 in985.1 mb 0.00 in0.0 mm 0.00 in0.0 mm 0.03 in0.8 mm
10:45 PM 47.3°F8.5°C 46.6°F8.1°C 97% 10.0 mph SSE16.1 kmh SSE 15.0 mph24.1 kmh 29.09 in985.1 mb 0.00 in0.0 mm 0.00 in0.0 mm 0.03 in0.8 mm
10:48 PM 47.3°F8.5°C 46.6°F8.1°C 97% 10.0 mph SSE16.1 kmh SSE 14.0 mph22.5 kmh 29.09 in985.1 mb 0.00 in0.0 mm 0.00 in0.0 mm 0.03 in0.8 mm
10:51 PM 47.3°F8.5°C 46.6°F8.1°C 97% 9.0 mph SSE14.5 kmh SSE 14.0 mph22.5 kmh 29.09 in985.1 mb 0.00 in0.0 mm 0.00 in0.0 mm 0.03 in0.8 mm
10:54 PM 47.3°F8.5°C 46.6°F8.1°C 97% 9.0 mph SSE14.5 kmh SSE 14.0 mph22.5 kmh 29.09 in985.1 mb 0.00 in0.0 mm 0.00 in0.0 mm 0.03 in0.8 mm
10:57 PM 47.3°F8.5°C 46.6°F8.1°C 97% 9.0 mph SSE14.5 kmh SSE 14.0 mph22.5 kmh 29.09 in985.1 mb 0.00 in0.0 mm 0.00 in0.0 mm 0.03 in0.8 mm
11:00 PM 47.3°F8.5°C 46.6°F8.1°C 97% 8.0 mph SSE12.9 kmh SSE 13.0 mph20.9 kmh 29.09 in985.1 mb 0.00 in0.0 mm 0.00 in0.0 mm 0.04 in1.0 mm
11:03 PM 47.3°F8.5°C 46.6°F8.1°C 97% 8.0 mph SSE12.9 kmh SSE 13.0 mph20.9 kmh 29.08 in984.8 mb 0.00 in0.0 mm 0.00 in0.0 mm 0.04 in1.0 mm
11:06 PM 47.3°F8.5°C 46.6°F8.1°C 97% 7.0 mph SSE11.3 kmh SSE 12.0 mph19.3 kmh 29.08 in984.8 mb 0.00 in0.0 mm 0.00 in0.0 mm 0.04 in1.0 mm
11:09 PM 47.3°F8.5°C 46.6°F8.1°C 97% 7.0 mph SSE11.3 kmh SSE 10.0 mph16.1 kmh 29.08 in984.8 mb 0.00 in0.0 mm 0.00 in0.0 mm 0.04 in1.0 mm
11:12 PM 47.3°F8.5°C 46.6°F8.1°C 97% 7.0 mph SSE11.3 kmh SSE 12.0 mph19.3 kmh 29.09 in985.1 mb 0.00 in0.0 mm 0.00 in0.0 mm 0.04 in1.0 mm
11:15 PM 47.3°F8.5°C 46.6°F8.1°C 97% 8.0 mph SSE12.9 kmh SSE 12.0 mph19.3 kmh 29.08 in984.8 mb 0.00 in0.0 mm 0.00 in0.0 mm 0.04 in1.0 mm
11:18 PM 47.3°F8.5°C 46.6°F8.1°C 97% 8.0 mph SSE12.9 kmh SSE 12.0 mph19.3 kmh 29.08 in984.8 mb 0.00 in0.0 mm 0.00 in0.0 mm 0.04 in1.0 mm
11:21 PM 47.3°F8.5°C 46.6°F8.1°C 97% 8.0 mph SSE12.9 kmh SSE 12.0 mph19.3 kmh 29.08 in984.8 mb 0.00 in0.0 mm 0.00 in0.0 mm 0.04 in1.0 mm
11:24 PM 47.3°F8.5°C 46.6°F8.1°C 97% 8.0 mph SSE12.9 kmh SSE 11.0 mph17.7 kmh 29.08 in984.8 mb 0.00 in0.0 mm 0.00 in0.0 mm 0.04 in1.0 mm
11:27 PM 47.3°F8.5°C 46.6°F8.1°C 97% 9.0 mph SSE14.5 kmh SSE 14.0 mph22.5 kmh 29.08 in984.8 mb 0.00 in0.0 mm 0.00 in0.0 mm 0.04 in1.0 mm
11:30 PM 47.3°F8.5°C 46.6°F8.1°C 97% 10.0 mph SSE16.1 kmh SSE 14.0 mph22.5 kmh 29.08 in984.8 mb 0.00 in0.0 mm 0.00 in0.0 mm 0.04 in1.0 mm
11:33 PM 47.3°F8.5°C 46.6°F8.1°C 97% 10.0 mph SSE16.1 kmh SSE 14.0 mph22.5 kmh 29.08 in984.8 mb 0.00 in0.0 mm 0.00 in0.0 mm 0.04 in1.0 mm
11:36 PM 47.3°F8.5°C 46.6°F8.1°C 97% 10.0 mph SSE16.1 kmh SSE 13.0 mph20.9 kmh 29.08 in984.8 mb 0.00 in0.0 mm 0.00 in0.0 mm 0.04 in1.0 mm
11:39 PM 47.3°F8.5°C 46.6°F8.1°C 97% 10.0 mph SSE16.1 kmh SSE 15.0 mph24.1 kmh 29.08 in984.8 mb 0.00 in0.0 mm 0.00 in0.0 mm 0.04 in1.0 mm
11:42 PM 47.3°F8.5°C 46.6°F8.1°C 97% 10.0 mph SSE16.1 kmh SSE 15.0 mph24.1 kmh 29.08 in984.8 mb 0.00 in0.0 mm 0.00 in0.0 mm 0.04 in1.0 mm
11:45 PM 47.3°F8.5°C 46.6°F8.1°C 97% 9.0 mph SSE14.5 kmh SSE 15.0 mph24.1 kmh 29.08 in984.8 mb 0.00 in0.0 mm 0.00 in0.0 mm 0.04 in1.0 mm
11:48 PM 47.3°F8.5°C 46.6°F8.1°C 97% 9.0 mph SSE14.5 kmh SSE 14.0 mph22.5 kmh 29.08 in984.8 mb 0.00 in0.0 mm 0.00 in0.0 mm 0.04 in1.0 mm
11:51 PM 47.3°F8.5°C 46.6°F8.1°C 97% 9.0 mph SSE14.5 kmh SSE 14.0 mph22.5 kmh 29.08 in984.8 mb 0.00 in0.0 mm 0.00 in0.0 mm 0.04 in1.0 mm
11:54 PM 47.3°F8.5°C 46.6°F8.1°C 97% 9.0 mph SSE14.5 kmh SSE 15.0 mph24.1 kmh 29.08 in984.8 mb 0.00 in0.0 mm 0.00 in0.0 mm 0.04 in1.0 mm
11:57 PM 47.3°F8.5°C 46.6°F8.1°C 97% 9.0 mph SSE14.5 kmh SSE 15.0 mph24.1 kmh 29.07 in984.4 mb 0.00 in0.0 mm 0.00 in0.0 mm 0.04 in1.0 mm